<?xml version="1.0" encoding="UTF-8" standalone="no" ?>
<gpx xmlns="http://www.topografix.com/GPX/1/1" xmlns:xsi="http://www.w3.org/2001/XMLSchema-instance" xsi:schemaLocation="http://www.topografix.com/GPX/1/1 http://www.topografix.com/GPX/1/1/gpx.xsd" version="1.1" creator="VisuGPX - https://www.visugpx.com">
  <metadata>
    <name>3 Plateau Puyricard</name>
  </metadata>
  <wpt lat="43.6409" lon="5.4319">
    <ele>382.59079</ele>
    <name><![CDATA[034]]></name>
  </wpt>
  <wpt lat="43.63408" lon="5.43346">
    <ele>407.989807</ele>
    <name><![CDATA[CoinGrillage]]></name>
  </wpt>
  <wpt lat="43.63363" lon="5.43212">
    <ele>409.098511</ele>
    <name><![CDATA[Grillage]]></name>
  </wpt>
  <wpt lat="43.62975" lon="5.43688">
    <ele>404.3125</ele>
    <name><![CDATA[Path]]></name>
    <desc><![CDATA[Path]]></desc>
    <cmt><![CDATA[Path]]></cmt>
  </wpt>
  <wpt lat="43.62626" lon="5.44845">
    <ele>430.53125</ele>
    <name><![CDATA[Path and Trail]]></name>
    <desc><![CDATA[Path and Trail]]></desc>
    <cmt><![CDATA[Path and Trail]]></cmt>
  </wpt>
  <wpt lat="43.62127" lon="5.43093">
    <ele>432.71875</ele>
    <name><![CDATA[Path1]]></name>
    <desc><![CDATA[Path]]></desc>
    <cmt><![CDATA[Path]]></cmt>
  </wpt>
  <wpt lat="43.62486" lon="5.44012">
    <ele>457.8945313</ele>
    <name><![CDATA[Path2]]></name>
    <desc><![CDATA[Path]]></desc>
    <cmt><![CDATA[Path]]></cmt>
  </wpt>
  <wpt lat="43.62122" lon="5.43713">
    <ele>442.625</ele>
    <name><![CDATA[Path3]]></name>
    <desc><![CDATA[Path]]></desc>
    <cmt><![CDATA[Path]]></cmt>
  </wpt>
  <wpt lat="43.62051" lon="5.44945">
    <ele>486.5117188</ele>
    <name><![CDATA[Path4]]></name>
    <desc><![CDATA[Path]]></desc>
    <cmt><![CDATA[Path]]></cmt>
  </wpt>
  <wpt lat="43.64002" lon="5.43182">
    <ele>384.062408</ele>
    <name><![CDATA[TirArc]]></name>
  </wpt>
  <wpt lat="43.61875" lon="5.4275">
    <ele>446.421875</ele>
    <name><![CDATA[Unpaved Road and Path]]></name>
    <desc><![CDATA[Unpaved Road and Path]]></desc>
    <cmt><![CDATA[Unpaved Road and Path]]></cmt>
  </wpt>
  <trk>
    <name><![CDATA[3 Plateau Puyricard]]></name>
    <trkseg>
      <trkpt lat="43.64358" lon="5.43333">
        <ele>274.11</ele>
        <time>2016-10-27T11:50:06Z</time>
      </trkpt>
      <trkpt lat="43.64358" lon="5.43333">
        <ele>278.92</ele>
        <time>2016-10-27T11:50:07Z</time>
      </trkpt>
      <trkpt lat="43.64359" lon="5.43333">
        <ele>283.73</ele>
        <time>2016-10-27T11:50:09Z</time>
      </trkpt>
      <trkpt lat="43.6436" lon="5.43333">
        <ele>288.53</ele>
        <time>2016-10-27T11:50:11Z</time>
      </trkpt>
      <trkpt lat="43.64361" lon="5.43333">
        <ele>292.38</ele>
        <time>2016-10-27T11:50:13Z</time>
      </trkpt>
      <trkpt lat="43.64362" lon="5.43333">
        <ele>296.22</ele>
        <time>2016-10-27T11:50:15Z</time>
      </trkpt>
      <trkpt lat="43.64362" lon="5.43333">
        <ele>300.07</ele>
        <time>2016-10-27T11:50:17Z</time>
      </trkpt>
      <trkpt lat="43.64362" lon="5.43334">
        <ele>303.91</ele>
        <time>2016-10-27T11:50:19Z</time>
      </trkpt>
      <trkpt lat="43.64362" lon="5.43334">
        <ele>307.76</ele>
        <time>2016-10-27T11:50:21Z</time>
      </trkpt>
      <trkpt lat="43.64363" lon="5.43334">
        <ele>311.12</ele>
        <time>2016-10-27T11:50:23Z</time>
      </trkpt>
      <trkpt lat="43.64363" lon="5.43334">
        <ele>314.01</ele>
        <time>2016-10-27T11:50:25Z</time>
      </trkpt>
      <trkpt lat="43.64363" lon="5.43334">
        <ele>317.37</ele>
        <time>2016-10-27T11:50:27Z</time>
      </trkpt>
      <trkpt lat="43.64363" lon="5.43333">
        <ele>320.26</ele>
        <time>2016-10-27T11:50:29Z</time>
      </trkpt>
      <trkpt lat="43.64363" lon="5.43334">
        <ele>324.1</ele>
        <time>2016-10-27T11:50:32Z</time>
      </trkpt>
      <trkpt lat="43.64365" lon="5.43334">
        <ele>328.43</ele>
        <time>2016-10-27T11:50:35Z</time>
      </trkpt>
      <trkpt lat="43.64365" lon="5.43335">
        <ele>332.27</ele>
        <time>2016-10-27T11:50:38Z</time>
      </trkpt>
      <trkpt lat="43.64365" lon="5.43335">
        <ele>336.12</ele>
        <time>2016-10-27T11:50:41Z</time>
      </trkpt>
      <trkpt lat="43.64365" lon="5.43336">
        <ele>339.48</ele>
        <time>2016-10-27T11:50:44Z</time>
      </trkpt>
      <trkpt lat="43.64365" lon="5.43336">
        <ele>342.37</ele>
        <time>2016-10-27T11:50:47Z</time>
      </trkpt>
      <trkpt lat="43.64366" lon="5.43336">
        <ele>443.31</ele>
        <time>2016-10-27T11:50:48Z</time>
      </trkpt>
      <trkpt lat="43.64365" lon="5.43336">
        <ele>443.31</ele>
        <time>2016-10-27T11:50:49Z</time>
      </trkpt>
      <trkpt lat="43.64365" lon="5.43336">
        <ele>372.17</ele>
        <time>2016-10-27T11:50:52Z</time>
      </trkpt>
      <trkpt lat="43.64365" lon="5.43336">
        <ele>372.17</ele>
        <time>2016-10-27T11:50:53Z</time>
      </trkpt>
      <trkpt lat="43.64365" lon="5.43335">
        <ele>372.17</ele>
        <time>2016-10-27T11:51:09Z</time>
      </trkpt>
      <trkpt lat="43.64365" lon="5.43333">
        <ele>372.17</ele>
        <time>2016-10-27T11:51:29Z</time>
      </trkpt>
      <trkpt lat="43.64367" lon="5.43335">
        <ele>372.65</ele>
        <time>2016-10-27T11:51:53Z</time>
      </trkpt>
      <trkpt lat="43.64366" lon="5.43336">
        <ele>372.65</ele>
        <time>2016-10-27T11:52:10Z</time>
      </trkpt>
      <trkpt lat="43.64364" lon="5.43332">
        <ele>372.65</ele>
        <time>2016-10-27T11:52:25Z</time>
      </trkpt>
      <trkpt lat="43.64362" lon="5.43327">
        <ele>372.65</ele>
        <time>2016-10-27T11:52:42Z</time>
      </trkpt>
      <trkpt lat="43.64358" lon="5.43327">
        <ele>372.65</ele>
        <time>2016-10-27T11:52:54Z</time>
      </trkpt>
      <trkpt lat="43.64355" lon="5.43327">
        <ele>372.65</ele>
        <time>2016-10-27T11:53:17Z</time>
      </trkpt>
      <trkpt lat="43.64349" lon="5.43326">
        <ele>372.65</ele>
        <time>2016-10-27T11:53:28Z</time>
      </trkpt>
      <trkpt lat="43.64344" lon="5.43326">
        <ele>372.65</ele>
        <time>2016-10-27T11:53:43Z</time>
      </trkpt>
      <trkpt lat="43.64339" lon="5.4332">
        <ele>372.65</ele>
        <time>2016-10-27T11:54:03Z</time>
      </trkpt>
      <trkpt lat="43.6434" lon="5.43319">
        <ele>373.61</ele>
        <time>2016-10-27T11:54:18Z</time>
      </trkpt>
      <trkpt lat="43.64333" lon="5.43322">
        <ele>373.13</ele>
        <time>2016-10-27T11:54:36Z</time>
      </trkpt>
      <trkpt lat="43.64329" lon="5.43329">
        <ele>373.13</ele>
        <time>2016-10-27T11:54:48Z</time>
      </trkpt>
      <trkpt lat="43.64322" lon="5.43331">
        <ele>373.13</ele>
        <time>2016-10-27T11:55:03Z</time>
      </trkpt>
      <trkpt lat="43.64317" lon="5.43327">
        <ele>373.13</ele>
        <time>2016-10-27T11:55:16Z</time>
      </trkpt>
      <trkpt lat="43.64308" lon="5.43327">
        <ele>373.13</ele>
        <time>2016-10-27T11:55:31Z</time>
      </trkpt>
      <trkpt lat="43.643" lon="5.43325">
        <ele>373.61</ele>
        <time>2016-10-27T11:55:43Z</time>
      </trkpt>
      <trkpt lat="43.64301" lon="5.43321">
        <ele>374.09</ele>
        <time>2016-10-27T11:55:56Z</time>
      </trkpt>
      <trkpt lat="43.64302" lon="5.43316">
        <ele>375.05</ele>
        <time>2016-10-27T11:56:07Z</time>
      </trkpt>
      <trkpt lat="43.64307" lon="5.43312">
        <ele>376.01</ele>
        <time>2016-10-27T11:56:21Z</time>
      </trkpt>
      <trkpt lat="43.64306" lon="5.43308">
        <ele>377.45</ele>
        <time>2016-10-27T11:56:34Z</time>
      </trkpt>
      <trkpt lat="43.64306" lon="5.43304">
        <ele>377.94</ele>
        <time>2016-10-27T11:56:44Z</time>
      </trkpt>
      <trkpt lat="43.64303" lon="5.43297">
        <ele>378.42</ele>
        <time>2016-10-27T11:56:55Z</time>
      </trkpt>
      <trkpt lat="43.64302" lon="5.43297">
        <ele>376.97</ele>
        <time>2016-10-27T11:56:57Z</time>
      </trkpt>
      <trkpt lat="43.64302" lon="5.43296">
        <ele>378.9</ele>
        <time>2016-10-27T11:57:05Z</time>
      </trkpt>
      <trkpt lat="43.64302" lon="5.43295">
        <ele>378.9</ele>
        <time>2016-10-27T11:57:18Z</time>
      </trkpt>
      <trkpt lat="43.64302" lon="5.43295">
        <ele>378.9</ele>
        <time>2016-10-27T11:57:23Z</time>
      </trkpt>
      <trkpt lat="43.64296" lon="5.43288">
        <ele>379.38</ele>
        <time>2016-10-27T11:57:33Z</time>
      </trkpt>
      <trkpt lat="43.64293" lon="5.43285">
        <ele>378.9</ele>
        <time>2016-10-27T11:57:37Z</time>
      </trkpt>
      <trkpt lat="43.64284" lon="5.43278">
        <ele>379.38</ele>
        <time>2016-10-27T11:57:49Z</time>
      </trkpt>
      <trkpt lat="43.64277" lon="5.43272">
        <ele>379.86</ele>
        <time>2016-10-27T11:58:00Z</time>
      </trkpt>
      <trkpt lat="43.64272" lon="5.43266">
        <ele>379.86</ele>
        <time>2016-10-27T11:58:11Z</time>
      </trkpt>
      <trkpt lat="43.64276" lon="5.43269">
        <ele>379.86</ele>
        <time>2016-10-27T11:58:31Z</time>
      </trkpt>
      <trkpt lat="43.64276" lon="5.43266">
        <ele>380.34</ele>
        <time>2016-10-27T11:59:03Z</time>
      </trkpt>
      <trkpt lat="43.64268" lon="5.43259">
        <ele>380.34</ele>
        <time>2016-10-27T11:59:21Z</time>
      </trkpt>
      <trkpt lat="43.6426" lon="5.4325">
        <ele>379.86</ele>
        <time>2016-10-27T11:59:32Z</time>
      </trkpt>
      <trkpt lat="43.64257" lon="5.43247">
        <ele>380.34</ele>
        <time>2016-10-27T11:59:36Z</time>
      </trkpt>
      <trkpt lat="43.64254" lon="5.43242">
        <ele>379.86</ele>
        <time>2016-10-27T11:59:41Z</time>
      </trkpt>
      <trkpt lat="43.64246" lon="5.43231">
        <ele>379.86</ele>
        <time>2016-10-27T11:59:54Z</time>
      </trkpt>
      <trkpt lat="43.64245" lon="5.4323">
        <ele>380.34</ele>
        <time>2016-10-27T11:59:56Z</time>
      </trkpt>
      <trkpt lat="43.64233" lon="5.4322">
        <ele>380.82</ele>
        <time>2016-10-27T12:00:11Z</time>
      </trkpt>
      <trkpt lat="43.6423" lon="5.43217">
        <ele>380.82</ele>
        <time>2016-10-27T12:00:15Z</time>
      </trkpt>
      <trkpt lat="43.64221" lon="5.43212">
        <ele>379.86</ele>
        <time>2016-10-27T12:00:28Z</time>
      </trkpt>
      <trkpt lat="43.64219" lon="5.43212">
        <ele>379.86</ele>
        <time>2016-10-27T12:00:30Z</time>
      </trkpt>
      <trkpt lat="43.64207" lon="5.43209">
        <ele>380.82</ele>
        <time>2016-10-27T12:00:46Z</time>
      </trkpt>
      <trkpt lat="43.64196" lon="5.43208">
        <ele>381.3</ele>
        <time>2016-10-27T12:00:59Z</time>
      </trkpt>
      <trkpt lat="43.6419" lon="5.43207">
        <ele>381.3</ele>
        <time>2016-10-27T12:01:09Z</time>
      </trkpt>
      <trkpt lat="43.64186" lon="5.43206">
        <ele>381.3</ele>
        <time>2016-10-27T12:01:29Z</time>
      </trkpt>
      <trkpt lat="43.64179" lon="5.43207">
        <ele>382.26</ele>
        <time>2016-10-27T12:01:39Z</time>
      </trkpt>
      <trkpt lat="43.64169" lon="5.43205">
        <ele>382.74</ele>
        <time>2016-10-27T12:01:52Z</time>
      </trkpt>
      <trkpt lat="43.64165" lon="5.43206">
        <ele>382.26</ele>
        <time>2016-10-27T12:01:58Z</time>
      </trkpt>
      <trkpt lat="43.64162" lon="5.43208">
        <ele>382.74</ele>
        <time>2016-10-27T12:02:09Z</time>
      </trkpt>
      <trkpt lat="43.64154" lon="5.43208">
        <ele>382.74</ele>
        <time>2016-10-27T12:02:22Z</time>
      </trkpt>
      <trkpt lat="43.64151" lon="5.43209">
        <ele>382.74</ele>
        <time>2016-10-27T12:02:26Z</time>
      </trkpt>
      <trkpt lat="43.64137" lon="5.4321">
        <ele>382.74</ele>
        <time>2016-10-27T12:02:42Z</time>
      </trkpt>
      <trkpt lat="43.64121" lon="5.43206">
        <ele>382.74</ele>
        <time>2016-10-27T12:02:58Z</time>
      </trkpt>
      <trkpt lat="43.64111" lon="5.43199">
        <ele>382.74</ele>
        <time>2016-10-27T12:03:11Z</time>
      </trkpt>
      <trkpt lat="43.64102" lon="5.43194">
        <ele>383.22</ele>
        <time>2016-10-27T12:03:23Z</time>
      </trkpt>
      <trkpt lat="43.64099" lon="5.43193">
        <ele>383.22</ele>
        <time>2016-10-27T12:03:37Z</time>
      </trkpt>
      <trkpt lat="43.64089" lon="5.43192">
        <ele>382.74</ele>
        <time>2016-10-27T12:03:50Z</time>
      </trkpt>
      <trkpt lat="43.64079" lon="5.43196">
        <ele>382.74</ele>
        <time>2016-10-27T12:04:05Z</time>
      </trkpt>
      <trkpt lat="43.64073" lon="5.43189">
        <ele>382.74</ele>
        <time>2016-10-27T12:04:17Z</time>
      </trkpt>
      <trkpt lat="43.64064" lon="5.43196">
        <ele>382.74</ele>
        <time>2016-10-27T12:04:32Z</time>
      </trkpt>
      <trkpt lat="43.64058" lon="5.43194">
        <ele>383.22</ele>
        <time>2016-10-27T12:04:50Z</time>
      </trkpt>
      <trkpt lat="43.6405" lon="5.43192">
        <ele>383.22</ele>
        <time>2016-10-27T12:05:08Z</time>
      </trkpt>
      <trkpt lat="43.64047" lon="5.43196">
        <ele>383.22</ele>
        <time>2016-10-27T12:05:26Z</time>
      </trkpt>
      <trkpt lat="43.6404" lon="5.43188">
        <ele>383.22</ele>
        <time>2016-10-27T12:05:44Z</time>
      </trkpt>
      <trkpt lat="43.64033" lon="5.43181">
        <ele>383.7</ele>
        <time>2016-10-27T12:05:57Z</time>
      </trkpt>
      <trkpt lat="43.64027" lon="5.43181">
        <ele>383.7</ele>
        <time>2016-10-27T12:06:10Z</time>
      </trkpt>
      <trkpt lat="43.64024" lon="5.43185">
        <ele>383.22</ele>
        <time>2016-10-27T12:06:23Z</time>
      </trkpt>
      <trkpt lat="43.64024" lon="5.43192">
        <ele>383.22</ele>
        <time>2016-10-27T12:06:39Z</time>
      </trkpt>
      <trkpt lat="43.64019" lon="5.43194">
        <ele>383.22</ele>
        <time>2016-10-27T12:06:54Z</time>
      </trkpt>
      <trkpt lat="43.6401" lon="5.43189">
        <ele>383.7</ele>
        <time>2016-10-27T12:07:09Z</time>
      </trkpt>
      <trkpt lat="43.64006" lon="5.43184">
        <ele>383.7</ele>
        <time>2016-10-27T12:07:24Z</time>
      </trkpt>
      <trkpt lat="43.64002" lon="5.43184">
        <ele>383.7</ele>
        <time>2016-10-27T12:07:35Z</time>
      </trkpt>
      <trkpt lat="43.64" lon="5.4318">
        <ele>384.18</ele>
        <time>2016-10-27T12:08:03Z</time>
      </trkpt>
      <trkpt lat="43.63994" lon="5.43187">
        <ele>383.7</ele>
        <time>2016-10-27T12:08:15Z</time>
      </trkpt>
      <trkpt lat="43.63988" lon="5.43186">
        <ele>383.22</ele>
        <time>2016-10-27T12:08:27Z</time>
      </trkpt>
      <trkpt lat="43.63986" lon="5.43184">
        <ele>383.7</ele>
        <time>2016-10-27T12:08:36Z</time>
      </trkpt>
      <trkpt lat="43.63981" lon="5.43188">
        <ele>383.22</ele>
        <time>2016-10-27T12:08:50Z</time>
      </trkpt>
      <trkpt lat="43.63978" lon="5.43188">
        <ele>382.74</ele>
        <time>2016-10-27T12:09:04Z</time>
      </trkpt>
      <trkpt lat="43.63974" lon="5.43194">
        <ele>381.78</ele>
        <time>2016-10-27T12:09:26Z</time>
      </trkpt>
      <trkpt lat="43.63972" lon="5.432">
        <ele>380.34</ele>
        <time>2016-10-27T12:09:42Z</time>
      </trkpt>
      <trkpt lat="43.63963" lon="5.43199">
        <ele>378.9</ele>
        <time>2016-10-27T12:09:58Z</time>
      </trkpt>
      <trkpt lat="43.63952" lon="5.43196">
        <ele>379.38</ele>
        <time>2016-10-27T12:10:11Z</time>
      </trkpt>
      <trkpt lat="43.6394" lon="5.43194">
        <ele>379.86</ele>
        <time>2016-10-27T12:10:27Z</time>
      </trkpt>
      <trkpt lat="43.63931" lon="5.43196">
        <ele>378.42</ele>
        <time>2016-10-27T12:10:44Z</time>
      </trkpt>
      <trkpt lat="43.63922" lon="5.43196">
        <ele>378.42</ele>
        <time>2016-10-27T12:10:58Z</time>
      </trkpt>
      <trkpt lat="43.63915" lon="5.43193">
        <ele>378.9</ele>
        <time>2016-10-27T12:11:15Z</time>
      </trkpt>
      <trkpt lat="43.6391" lon="5.43188">
        <ele>379.38</ele>
        <time>2016-10-27T12:11:32Z</time>
      </trkpt>
      <trkpt lat="43.63904" lon="5.43188">
        <ele>380.34</ele>
        <time>2016-10-27T12:11:45Z</time>
      </trkpt>
      <trkpt lat="43.63899" lon="5.43189">
        <ele>379.38</ele>
        <time>2016-10-27T12:11:59Z</time>
      </trkpt>
      <trkpt lat="43.63892" lon="5.43189">
        <ele>378.42</ele>
        <time>2016-10-27T12:12:14Z</time>
      </trkpt>
      <trkpt lat="43.63885" lon="5.43183">
        <ele>378.42</ele>
        <time>2016-10-27T12:12:25Z</time>
      </trkpt>
      <trkpt lat="43.63883" lon="5.43177">
        <ele>378.9</ele>
        <time>2016-10-27T12:12:34Z</time>
      </trkpt>
      <trkpt lat="43.63878" lon="5.43181">
        <ele>379.38</ele>
        <time>2016-10-27T12:12:45Z</time>
      </trkpt>
      <trkpt lat="43.6387" lon="5.43185">
        <ele>379.38</ele>
        <time>2016-10-27T12:12:58Z</time>
      </trkpt>
      <trkpt lat="43.63863" lon="5.43186">
        <ele>380.82</ele>
        <time>2016-10-27T12:13:08Z</time>
      </trkpt>
      <trkpt lat="43.63855" lon="5.43185">
        <ele>380.34</ele>
        <time>2016-10-27T12:13:21Z</time>
      </trkpt>
      <trkpt lat="43.63846" lon="5.43186">
        <ele>380.82</ele>
        <time>2016-10-27T12:13:36Z</time>
      </trkpt>
      <trkpt lat="43.63837" lon="5.43188">
        <ele>380.34</ele>
        <time>2016-10-27T12:13:50Z</time>
      </trkpt>
      <trkpt lat="43.63832" lon="5.43183">
        <ele>381.3</ele>
        <time>2016-10-27T12:14:01Z</time>
      </trkpt>
      <trkpt lat="43.63826" lon="5.43182">
        <ele>381.78</ele>
        <time>2016-10-27T12:14:14Z</time>
      </trkpt>
      <trkpt lat="43.6382" lon="5.43183">
        <ele>381.3</ele>
        <time>2016-10-27T12:14:26Z</time>
      </trkpt>
      <trkpt lat="43.63812" lon="5.43181">
        <ele>380.82</ele>
        <time>2016-10-27T12:14:40Z</time>
      </trkpt>
      <trkpt lat="43.63807" lon="5.43178">
        <ele>381.3</ele>
        <time>2016-10-27T12:14:53Z</time>
      </trkpt>
      <trkpt lat="43.63799" lon="5.43177">
        <ele>382.26</ele>
        <time>2016-10-27T12:15:05Z</time>
      </trkpt>
      <trkpt lat="43.63795" lon="5.43181">
        <ele>382.26</ele>
        <time>2016-10-27T12:15:19Z</time>
      </trkpt>
      <trkpt lat="43.63789" lon="5.43178">
        <ele>382.26</ele>
        <time>2016-10-27T12:15:30Z</time>
      </trkpt>
      <trkpt lat="43.63786" lon="5.43177">
        <ele>382.74</ele>
        <time>2016-10-27T12:15:45Z</time>
      </trkpt>
      <trkpt lat="43.63779" lon="5.43179">
        <ele>383.22</ele>
        <time>2016-10-27T12:15:58Z</time>
      </trkpt>
      <trkpt lat="43.63773" lon="5.43177">
        <ele>383.7</ele>
        <time>2016-10-27T12:16:09Z</time>
      </trkpt>
      <trkpt lat="43.63767" lon="5.43175">
        <ele>384.66</ele>
        <time>2016-10-27T12:16:20Z</time>
      </trkpt>
      <trkpt lat="43.63759" lon="5.43174">
        <ele>385.15</ele>
        <time>2016-10-27T12:16:32Z</time>
      </trkpt>
      <trkpt lat="43.63751" lon="5.43176">
        <ele>385.15</ele>
        <time>2016-10-27T12:16:48Z</time>
      </trkpt>
      <trkpt lat="43.6375" lon="5.43169">
        <ele>385.15</ele>
        <time>2016-10-27T12:17:09Z</time>
      </trkpt>
      <trkpt lat="43.63745" lon="5.4317">
        <ele>386.11</ele>
        <time>2016-10-27T12:17:20Z</time>
      </trkpt>
      <trkpt lat="43.63745" lon="5.43169">
        <ele>386.11</ele>
        <time>2016-10-27T12:17:39Z</time>
      </trkpt>
      <trkpt lat="43.63739" lon="5.4317">
        <ele>387.07</ele>
        <time>2016-10-27T12:17:57Z</time>
      </trkpt>
      <trkpt lat="43.63731" lon="5.43171">
        <ele>387.55</ele>
        <time>2016-10-27T12:18:11Z</time>
      </trkpt>
      <trkpt lat="43.63726" lon="5.43173">
        <ele>387.55</ele>
        <time>2016-10-27T12:18:27Z</time>
      </trkpt>
      <trkpt lat="43.63727" lon="5.43177">
        <ele>387.55</ele>
        <time>2016-10-27T12:18:47Z</time>
      </trkpt>
      <trkpt lat="43.6372" lon="5.43173">
        <ele>388.03</ele>
        <time>2016-10-27T12:19:05Z</time>
      </trkpt>
      <trkpt lat="43.63718" lon="5.43174">
        <ele>388.03</ele>
        <time>2016-10-27T12:19:20Z</time>
      </trkpt>
      <trkpt lat="43.63715" lon="5.43169">
        <ele>388.03</ele>
        <time>2016-10-27T12:19:49Z</time>
      </trkpt>
      <trkpt lat="43.63713" lon="5.43172">
        <ele>388.51</ele>
        <time>2016-10-27T12:20:12Z</time>
      </trkpt>
      <trkpt lat="43.63704" lon="5.43168">
        <ele>388.51</ele>
        <time>2016-10-27T12:20:26Z</time>
      </trkpt>
      <trkpt lat="43.63698" lon="5.43167">
        <ele>388.03</ele>
        <time>2016-10-27T12:20:40Z</time>
      </trkpt>
      <trkpt lat="43.63695" lon="5.43169">
        <ele>388.03</ele>
        <time>2016-10-27T12:21:00Z</time>
      </trkpt>
      <trkpt lat="43.63687" lon="5.43168">
        <ele>388.51</ele>
        <time>2016-10-27T12:21:14Z</time>
      </trkpt>
      <trkpt lat="43.6368" lon="5.43171">
        <ele>388.51</ele>
        <time>2016-10-27T12:21:31Z</time>
      </trkpt>
      <trkpt lat="43.63671" lon="5.43171">
        <ele>388.03</ele>
        <time>2016-10-27T12:21:47Z</time>
      </trkpt>
      <trkpt lat="43.63658" lon="5.43167">
        <ele>388.03</ele>
        <time>2016-10-27T12:22:03Z</time>
      </trkpt>
      <trkpt lat="43.63652" lon="5.43168">
        <ele>388.51</ele>
        <time>2016-10-27T12:22:16Z</time>
      </trkpt>
      <trkpt lat="43.63645" lon="5.43174">
        <ele>388.99</ele>
        <time>2016-10-27T12:22:29Z</time>
      </trkpt>
      <trkpt lat="43.63636" lon="5.43174">
        <ele>389.47</ele>
        <time>2016-10-27T12:22:42Z</time>
      </trkpt>
      <trkpt lat="43.63624" lon="5.43175">
        <ele>389.95</ele>
        <time>2016-10-27T12:22:59Z</time>
      </trkpt>
      <trkpt lat="43.63621" lon="5.43174">
        <ele>388.51</ele>
        <time>2016-10-27T12:23:06Z</time>
      </trkpt>
      <trkpt lat="43.63617" lon="5.43173">
        <ele>390.43</ele>
        <time>2016-10-27T12:23:18Z</time>
      </trkpt>
      <trkpt lat="43.63608" lon="5.43174">
        <ele>391.39</ele>
        <time>2016-10-27T12:23:32Z</time>
      </trkpt>
      <trkpt lat="43.63602" lon="5.43176">
        <ele>391.39</ele>
        <time>2016-10-27T12:23:43Z</time>
      </trkpt>
      <trkpt lat="43.63598" lon="5.43177">
        <ele>391.87</ele>
        <time>2016-10-27T12:23:56Z</time>
      </trkpt>
      <trkpt lat="43.63593" lon="5.43171">
        <ele>392.36</ele>
        <time>2016-10-27T12:24:08Z</time>
      </trkpt>
      <trkpt lat="43.6359" lon="5.43169">
        <ele>392.36</ele>
        <time>2016-10-27T12:24:18Z</time>
      </trkpt>
      <trkpt lat="43.63587" lon="5.43158">
        <ele>392.36</ele>
        <time>2016-10-27T12:24:31Z</time>
      </trkpt>
      <trkpt lat="43.63585" lon="5.43156">
        <ele>391.87</ele>
        <time>2016-10-27T12:24:49Z</time>
      </trkpt>
      <trkpt lat="43.63578" lon="5.43155">
        <ele>392.84</ele>
        <time>2016-10-27T12:25:00Z</time>
      </trkpt>
      <trkpt lat="43.63575" lon="5.43157">
        <ele>392.84</ele>
        <time>2016-10-27T12:25:14Z</time>
      </trkpt>
      <trkpt lat="43.63574" lon="5.43158">
        <ele>393.32</ele>
        <time>2016-10-27T12:25:36Z</time>
      </trkpt>
      <trkpt lat="43.6357" lon="5.43159">
        <ele>393.8</ele>
        <time>2016-10-27T12:25:50Z</time>
      </trkpt>
      <trkpt lat="43.63567" lon="5.43167">
        <ele>393.32</ele>
        <time>2016-10-27T12:26:04Z</time>
      </trkpt>
      <trkpt lat="43.63563" lon="5.43169">
        <ele>393.8</ele>
        <time>2016-10-27T12:26:20Z</time>
      </trkpt>
      <trkpt lat="43.63558" lon="5.4317">
        <ele>393.8</ele>
        <time>2016-10-27T12:26:34Z</time>
      </trkpt>
      <trkpt lat="43.63554" lon="5.43172">
        <ele>394.28</ele>
        <time>2016-10-27T12:26:49Z</time>
      </trkpt>
      <trkpt lat="43.63553" lon="5.43173">
        <ele>394.76</ele>
        <time>2016-10-27T12:27:09Z</time>
      </trkpt>
      <trkpt lat="43.63543" lon="5.43177">
        <ele>394.28</ele>
        <time>2016-10-27T12:27:22Z</time>
      </trkpt>
      <trkpt lat="43.63536" lon="5.43177">
        <ele>395.24</ele>
        <time>2016-10-27T12:27:34Z</time>
      </trkpt>
      <trkpt lat="43.6353" lon="5.43177">
        <ele>395.24</ele>
        <time>2016-10-27T12:27:43Z</time>
      </trkpt>
      <trkpt lat="43.63525" lon="5.43174">
        <ele>395.72</ele>
        <time>2016-10-27T12:27:57Z</time>
      </trkpt>
      <trkpt lat="43.63521" lon="5.43175">
        <ele>396.68</ele>
        <time>2016-10-27T12:28:08Z</time>
      </trkpt>
      <trkpt lat="43.63517" lon="5.43178">
        <ele>397.16</ele>
        <time>2016-10-27T12:28:23Z</time>
      </trkpt>
      <trkpt lat="43.63513" lon="5.43178">
        <ele>397.64</ele>
        <time>2016-10-27T12:28:40Z</time>
      </trkpt>
      <trkpt lat="43.63505" lon="5.43179">
        <ele>398.6</ele>
        <time>2016-10-27T12:28:55Z</time>
      </trkpt>
      <trkpt lat="43.63501" lon="5.43182">
        <ele>399.08</ele>
        <time>2016-10-27T12:29:04Z</time>
      </trkpt>
      <trkpt lat="43.635" lon="5.43189">
        <ele>399.08</ele>
        <time>2016-10-27T12:29:21Z</time>
      </trkpt>
      <trkpt lat="43.63501" lon="5.43197">
        <ele>399.57</ele>
        <time>2016-10-27T12:29:31Z</time>
      </trkpt>
      <trkpt lat="43.63503" lon="5.43202">
        <ele>399.08</ele>
        <time>2016-10-27T12:29:46Z</time>
      </trkpt>
      <trkpt lat="43.63498" lon="5.43208">
        <ele>399.08</ele>
        <time>2016-10-27T12:30:01Z</time>
      </trkpt>
      <trkpt lat="43.63493" lon="5.43205">
        <ele>400.05</ele>
        <time>2016-10-27T12:30:14Z</time>
      </trkpt>
      <trkpt lat="43.63488" lon="5.43205">
        <ele>400.05</ele>
        <time>2016-10-27T12:30:29Z</time>
      </trkpt>
      <trkpt lat="43.63484" lon="5.43204">
        <ele>401.01</ele>
        <time>2016-10-27T12:30:44Z</time>
      </trkpt>
      <trkpt lat="43.63482" lon="5.43207">
        <ele>401.01</ele>
        <time>2016-10-27T12:30:55Z</time>
      </trkpt>
      <trkpt lat="43.63479" lon="5.43205">
        <ele>401.97</ele>
        <time>2016-10-27T12:31:06Z</time>
      </trkpt>
      <trkpt lat="43.63477" lon="5.43205">
        <ele>401.97</ele>
        <time>2016-10-27T12:31:17Z</time>
      </trkpt>
      <trkpt lat="43.63478" lon="5.43207">
        <ele>401.97</ele>
        <time>2016-10-27T12:31:40Z</time>
      </trkpt>
      <trkpt lat="43.63474" lon="5.43203">
        <ele>402.45</ele>
        <time>2016-10-27T12:31:56Z</time>
      </trkpt>
      <trkpt lat="43.6347" lon="5.43205">
        <ele>403.41</ele>
        <time>2016-10-27T12:32:08Z</time>
      </trkpt>
      <trkpt lat="43.63468" lon="5.43205">
        <ele>403.41</ele>
        <time>2016-10-27T12:32:22Z</time>
      </trkpt>
      <trkpt lat="43.63463" lon="5.432">
        <ele>404.37</ele>
        <time>2016-10-27T12:32:36Z</time>
      </trkpt>
      <trkpt lat="43.63457" lon="5.43203">
        <ele>405.33</ele>
        <time>2016-10-27T12:32:49Z</time>
      </trkpt>
      <trkpt lat="43.63454" lon="5.43203">
        <ele>405.33</ele>
        <time>2016-10-27T12:33:04Z</time>
      </trkpt>
      <trkpt lat="43.63449" lon="5.43203">
        <ele>406.29</ele>
        <time>2016-10-27T12:33:17Z</time>
      </trkpt>
      <trkpt lat="43.63443" lon="5.43202">
        <ele>406.29</ele>
        <time>2016-10-27T12:33:35Z</time>
      </trkpt>
      <trkpt lat="43.6344" lon="5.43198">
        <ele>406.77</ele>
        <time>2016-10-27T12:33:52Z</time>
      </trkpt>
      <trkpt lat="43.63433" lon="5.43196">
        <ele>406.77</ele>
        <time>2016-10-27T12:34:08Z</time>
      </trkpt>
      <trkpt lat="43.63427" lon="5.43196">
        <ele>407.26</ele>
        <time>2016-10-27T12:34:22Z</time>
      </trkpt>
      <trkpt lat="43.63427" lon="5.43192">
        <ele>407.74</ele>
        <time>2016-10-27T12:34:35Z</time>
      </trkpt>
      <trkpt lat="43.63427" lon="5.43191">
        <ele>406.29</ele>
        <time>2016-10-27T12:34:38Z</time>
      </trkpt>
      <trkpt lat="43.63427" lon="5.4319">
        <ele>407.26</ele>
        <time>2016-10-27T12:34:52Z</time>
      </trkpt>
      <trkpt lat="43.63421" lon="5.43194">
        <ele>407.74</ele>
        <time>2016-10-27T12:35:05Z</time>
      </trkpt>
      <trkpt lat="43.63414" lon="5.43195">
        <ele>407.74</ele>
        <time>2016-10-27T12:35:17Z</time>
      </trkpt>
      <trkpt lat="43.63411" lon="5.43185">
        <ele>408.22</ele>
        <time>2016-10-27T12:35:31Z</time>
      </trkpt>
      <trkpt lat="43.63406" lon="5.43179">
        <ele>408.22</ele>
        <time>2016-10-27T12:35:39Z</time>
      </trkpt>
      <trkpt lat="43.63397" lon="5.43175">
        <ele>408.7</ele>
        <time>2016-10-27T12:35:52Z</time>
      </trkpt>
      <trkpt lat="43.6339" lon="5.43176">
        <ele>408.7</ele>
        <time>2016-10-27T12:36:03Z</time>
      </trkpt>
      <trkpt lat="43.63385" lon="5.43178">
        <ele>408.22</ele>
        <time>2016-10-27T12:36:13Z</time>
      </trkpt>
      <trkpt lat="43.63378" lon="5.43181">
        <ele>408.22</ele>
        <time>2016-10-27T12:36:26Z</time>
      </trkpt>
      <trkpt lat="43.63375" lon="5.43189">
        <ele>408.22</ele>
        <time>2016-10-27T12:36:36Z</time>
      </trkpt>
      <trkpt lat="43.63374" lon="5.43197">
        <ele>408.22</ele>
        <time>2016-10-27T12:36:48Z</time>
      </trkpt>
      <trkpt lat="43.6337" lon="5.43204">
        <ele>408.22</ele>
        <time>2016-10-27T12:36:57Z</time>
      </trkpt>
      <trkpt lat="43.63367" lon="5.43209">
        <ele>408.22</ele>
        <time>2016-10-27T12:37:11Z</time>
      </trkpt>
      <trkpt lat="43.63364" lon="5.43216">
        <ele>408.22</ele>
        <time>2016-10-27T12:37:26Z</time>
      </trkpt>
      <trkpt lat="43.63363" lon="5.43219">
        <ele>408.22</ele>
        <time>2016-10-27T12:37:50Z</time>
      </trkpt>
      <trkpt lat="43.63357" lon="5.43214">
        <ele>408.22</ele>
        <time>2016-10-27T12:38:07Z</time>
      </trkpt>
      <trkpt lat="43.63355" lon="5.4321">
        <ele>408.22</ele>
        <time>2016-10-27T12:38:32Z</time>
      </trkpt>
      <trkpt lat="43.63357" lon="5.43212">
        <ele>408.22</ele>
        <time>2016-10-27T12:39:02Z</time>
      </trkpt>
      <trkpt lat="43.63358" lon="5.43216">
        <ele>408.22</ele>
        <time>2016-10-27T12:39:31Z</time>
      </trkpt>
      <trkpt lat="43.63357" lon="5.43219">
        <ele>408.22</ele>
        <time>2016-10-27T12:39:57Z</time>
      </trkpt>
      <trkpt lat="43.6335" lon="5.43227">
        <ele>408.22</ele>
        <time>2016-10-27T12:40:22Z</time>
      </trkpt>
      <trkpt lat="43.6335" lon="5.43228">
        <ele>408.22</ele>
        <time>2016-10-27T12:40:43Z</time>
      </trkpt>
      <trkpt lat="43.63356" lon="5.43221">
        <ele>408.7</ele>
        <time>2016-10-27T12:41:07Z</time>
      </trkpt>
      <trkpt lat="43.63356" lon="5.43211">
        <ele>408.7</ele>
        <time>2016-10-27T12:41:34Z</time>
      </trkpt>
      <trkpt lat="43.63358" lon="5.43219">
        <ele>408.7</ele>
        <time>2016-10-27T12:41:52Z</time>
      </trkpt>
      <trkpt lat="43.63355" lon="5.43228">
        <ele>408.7</ele>
        <time>2016-10-27T12:42:23Z</time>
      </trkpt>
      <trkpt lat="43.63361" lon="5.43216">
        <ele>408.7</ele>
        <time>2016-10-27T12:43:00Z</time>
      </trkpt>
      <trkpt lat="43.63363" lon="5.43214">
        <ele>409.18</ele>
        <time>2016-10-27T12:43:22Z</time>
      </trkpt>
      <trkpt lat="43.63362" lon="5.43211">
        <ele>409.18</ele>
        <time>2016-10-27T12:43:41Z</time>
      </trkpt>
      <trkpt lat="43.63365" lon="5.43215">
        <ele>409.18</ele>
        <time>2016-10-27T12:44:09Z</time>
      </trkpt>
      <trkpt lat="43.63371" lon="5.43211">
        <ele>409.18</ele>
        <time>2016-10-27T12:44:40Z</time>
      </trkpt>
      <trkpt lat="43.63369" lon="5.43221">
        <ele>409.18</ele>
        <time>2016-10-27T12:44:59Z</time>
      </trkpt>
      <trkpt lat="43.63367" lon="5.43225">
        <ele>410.14</ele>
        <time>2016-10-27T12:45:19Z</time>
      </trkpt>
      <trkpt lat="43.63368" lon="5.43236">
        <ele>409.18</ele>
        <time>2016-10-27T12:45:32Z</time>
      </trkpt>
      <trkpt lat="43.63369" lon="5.43241">
        <ele>409.66</ele>
        <time>2016-10-27T12:45:49Z</time>
      </trkpt>
      <trkpt lat="43.63372" lon="5.43248">
        <ele>409.66</ele>
        <time>2016-10-27T12:46:00Z</time>
      </trkpt>
      <trkpt lat="43.63373" lon="5.43247">
        <ele>409.66</ele>
        <time>2016-10-27T12:46:17Z</time>
      </trkpt>
      <trkpt lat="43.63366" lon="5.43245">
        <ele>409.66</ele>
        <time>2016-10-27T12:46:38Z</time>
      </trkpt>
      <trkpt lat="43.63366" lon="5.43248">
        <ele>409.66</ele>
        <time>2016-10-27T12:47:01Z</time>
      </trkpt>
      <trkpt lat="43.63372" lon="5.43256">
        <ele>409.66</ele>
        <time>2016-10-27T12:47:13Z</time>
      </trkpt>
      <trkpt lat="43.63379" lon="5.43268">
        <ele>410.14</ele>
        <time>2016-10-27T12:47:28Z</time>
      </trkpt>
      <trkpt lat="43.6338" lon="5.43274">
        <ele>409.66</ele>
        <time>2016-10-27T12:47:40Z</time>
      </trkpt>
      <trkpt lat="43.63385" lon="5.43287">
        <ele>409.18</ele>
        <time>2016-10-27T12:47:53Z</time>
      </trkpt>
      <trkpt lat="43.63392" lon="5.43302">
        <ele>409.18</ele>
        <time>2016-10-27T12:48:08Z</time>
      </trkpt>
      <trkpt lat="43.63396" lon="5.43313">
        <ele>409.18</ele>
        <time>2016-10-27T12:48:21Z</time>
      </trkpt>
      <trkpt lat="43.634" lon="5.4332">
        <ele>408.22</ele>
        <time>2016-10-27T12:48:36Z</time>
      </trkpt>
      <trkpt lat="43.63365" lon="5.43251">
        <ele>403.1875</ele>
      </trkpt>
      <trkpt lat="43.63333" lon="5.43258">
        <ele>404.3085938</ele>
      </trkpt>
      <trkpt lat="43.63305" lon="5.43272">
        <ele>405</ele>
      </trkpt>
      <trkpt lat="43.63268" lon="5.43318">
        <ele>402.1054688</ele>
      </trkpt>
      <trkpt lat="43.63267" lon="5.43322">
        <ele>401.8515625</ele>
      </trkpt>
      <trkpt lat="43.63248" lon="5.43366">
        <ele>396.1875</ele>
      </trkpt>
      <trkpt lat="43.63213" lon="5.43391">
        <ele>394.9492188</ele>
      </trkpt>
      <trkpt lat="43.63195" lon="5.43397">
        <ele>395.3554688</ele>
      </trkpt>
      <trkpt lat="43.63163" lon="5.43445">
        <ele>393.4257813</ele>
      </trkpt>
      <trkpt lat="43.63163" lon="5.43447">
        <ele>393.2734375</ele>
      </trkpt>
      <trkpt lat="43.6314" lon="5.43489">
        <ele>393.3046875</ele>
      </trkpt>
      <trkpt lat="43.63125" lon="5.43512">
        <ele>395.546875</ele>
      </trkpt>
      <trkpt lat="43.63125" lon="5.43511">
        <ele>395.5742188</ele>
      </trkpt>
      <trkpt lat="43.63086" lon="5.4354">
        <ele>400.078125</ele>
      </trkpt>
      <trkpt lat="43.63086" lon="5.43539">
        <ele>400.125</ele>
      </trkpt>
      <trkpt lat="43.63057" lon="5.43585">
        <ele>402.2617188</ele>
      </trkpt>
      <trkpt lat="43.63034" lon="5.43641">
        <ele>403.0859375</ele>
      </trkpt>
      <trkpt lat="43.62974" lon="5.43697">
        <ele>403.9804688</ele>
      </trkpt>
      <trkpt lat="43.6293" lon="5.43703">
        <ele>405.4023438</ele>
      </trkpt>
      <trkpt lat="43.62935" lon="5.43702">
        <ele>405.0703125</ele>
      </trkpt>
      <trkpt lat="43.6288" lon="5.43667">
        <ele>412.9765625</ele>
      </trkpt>
      <trkpt lat="43.62833" lon="5.43629">
        <ele>419.8554688</ele>
      </trkpt>
      <trkpt lat="43.62799" lon="5.43588">
        <ele>424.0585938</ele>
      </trkpt>
      <trkpt lat="43.62775" lon="5.43588">
        <ele>429.4492188</ele>
      </trkpt>
      <trkpt lat="43.62716" lon="5.43585">
        <ele>439.03125</ele>
      </trkpt>
      <trkpt lat="43.62675" lon="5.43562">
        <ele>440.875</ele>
      </trkpt>
      <trkpt lat="43.62638" lon="5.43549">
        <ele>444.5</ele>
      </trkpt>
      <trkpt lat="43.6259" lon="5.43545">
        <ele>452.0820313</ele>
      </trkpt>
      <trkpt lat="43.62543" lon="5.43537">
        <ele>455.0664063</ele>
      </trkpt>
      <trkpt lat="43.62543" lon="5.43536">
        <ele>454.7109375</ele>
      </trkpt>
      <trkpt lat="43.62503" lon="5.43526">
        <ele>454.8945313</ele>
      </trkpt>
      <trkpt lat="43.62499" lon="5.43575">
        <ele>460.9609375</ele>
      </trkpt>
      <trkpt lat="43.62499" lon="5.43578">
        <ele>461.1523438</ele>
      </trkpt>
      <trkpt lat="43.62504" lon="5.43642">
        <ele>464.1953125</ele>
      </trkpt>
      <trkpt lat="43.62483" lon="5.43713">
        <ele>459.75</ele>
      </trkpt>
      <trkpt lat="43.62483" lon="5.43715">
        <ele>459.6953125</ele>
      </trkpt>
      <trkpt lat="43.62503" lon="5.43758">
        <ele>462.5859375</ele>
      </trkpt>
      <trkpt lat="43.62503" lon="5.43761">
        <ele>462.4921875</ele>
      </trkpt>
      <trkpt lat="43.6251" lon="5.43858">
        <ele>459.3828125</ele>
      </trkpt>
      <trkpt lat="43.62522" lon="5.43955">
        <ele>459.984375</ele>
      </trkpt>
      <trkpt lat="43.62493" lon="5.44014">
        <ele>459.1328125</ele>
      </trkpt>
      <trkpt lat="43.62454" lon="5.44031">
        <ele>454.2851563</ele>
      </trkpt>
      <trkpt lat="43.62433" lon="5.44054">
        <ele>452.8945313</ele>
      </trkpt>
      <trkpt lat="43.62433" lon="5.44055">
        <ele>452.96875</ele>
      </trkpt>
      <trkpt lat="43.62398" lon="5.44082">
        <ele>448.890625</ele>
      </trkpt>
      <trkpt lat="43.62399" lon="5.4408">
        <ele>449.0234375</ele>
      </trkpt>
      <trkpt lat="43.62375" lon="5.44082">
        <ele>447.125</ele>
      </trkpt>
      <trkpt lat="43.62375" lon="5.44083">
        <ele>447.234375</ele>
      </trkpt>
      <trkpt lat="43.62337" lon="5.44095">
        <ele>445.6328125</ele>
      </trkpt>
      <trkpt lat="43.62337" lon="5.44096">
        <ele>445.7382813</ele>
      </trkpt>
      <trkpt lat="43.62318" lon="5.44103">
        <ele>445.734375</ele>
      </trkpt>
      <trkpt lat="43.62318" lon="5.44106">
        <ele>445.8671875</ele>
      </trkpt>
      <trkpt lat="43.62287" lon="5.44133">
        <ele>448.6796875</ele>
      </trkpt>
      <trkpt lat="43.62286" lon="5.44134">
        <ele>448.7929688</ele>
      </trkpt>
      <trkpt lat="43.62278" lon="5.44113">
        <ele>448.3164063</ele>
      </trkpt>
      <trkpt lat="43.62248" lon="5.44115">
        <ele>449.828125</ele>
      </trkpt>
      <trkpt lat="43.62248" lon="5.44116">
        <ele>449.8867188</ele>
      </trkpt>
      <trkpt lat="43.62218" lon="5.44134">
        <ele>452.2226563</ele>
      </trkpt>
      <trkpt lat="43.62185" lon="5.44119">
        <ele>452.9023438</ele>
      </trkpt>
      <trkpt lat="43.62186" lon="5.44119">
        <ele>452.8515625</ele>
      </trkpt>
      <trkpt lat="43.62169" lon="5.44073">
        <ele>451.4335938</ele>
      </trkpt>
      <trkpt lat="43.62174" lon="5.44065">
        <ele>451.265625</ele>
      </trkpt>
      <trkpt lat="43.62174" lon="5.44064">
        <ele>451.2109375</ele>
      </trkpt>
      <trkpt lat="43.62163" lon="5.44011">
        <ele>449.390625</ele>
      </trkpt>
      <trkpt lat="43.62166" lon="5.44009">
        <ele>449.1289063</ele>
      </trkpt>
      <trkpt lat="43.62151" lon="5.43948">
        <ele>449.5234375</ele>
      </trkpt>
      <trkpt lat="43.62151" lon="5.43947">
        <ele>449.515625</ele>
      </trkpt>
      <trkpt lat="43.62136" lon="5.43878">
        <ele>446.5351563</ele>
      </trkpt>
      <trkpt lat="43.62134" lon="5.4381">
        <ele>441.6914063</ele>
      </trkpt>
      <trkpt lat="43.62128" lon="5.43736">
        <ele>441.5195313</ele>
      </trkpt>
      <trkpt lat="43.62115" lon="5.43695">
        <ele>443.90625</ele>
      </trkpt>
      <trkpt lat="43.62107" lon="5.43644">
        <ele>443.9960938</ele>
      </trkpt>
      <trkpt lat="43.62107" lon="5.4359">
        <ele>442.6328125</ele>
      </trkpt>
      <trkpt lat="43.62107" lon="5.43521">
        <ele>442.5742188</ele>
      </trkpt>
      <trkpt lat="43.62107" lon="5.43486">
        <ele>443.2226563</ele>
      </trkpt>
      <trkpt lat="43.62072" lon="5.43485">
        <ele>446.0117188</ele>
      </trkpt>
      <trkpt lat="43.62065" lon="5.43427">
        <ele>445.2695313</ele>
      </trkpt>
      <trkpt lat="43.62047" lon="5.43335">
        <ele>444</ele>
      </trkpt>
      <trkpt lat="43.62038" lon="5.43264">
        <ele>442.9765625</ele>
      </trkpt>
      <trkpt lat="43.62038" lon="5.43259">
        <ele>442.96875</ele>
      </trkpt>
      <trkpt lat="43.62033" lon="5.4319">
        <ele>442.6445313</ele>
      </trkpt>
      <trkpt lat="43.62024" lon="5.43149">
        <ele>441.5976563</ele>
      </trkpt>
      <trkpt lat="43.62041" lon="5.43075">
        <ele>440.71875</ele>
      </trkpt>
      <trkpt lat="43.62058" lon="5.43006">
        <ele>439.65625</ele>
      </trkpt>
      <trkpt lat="43.62061" lon="5.42999">
        <ele>439.4921875</ele>
      </trkpt>
      <trkpt lat="43.62061" lon="5.42975">
        <ele>440.2617188</ele>
      </trkpt>
      <trkpt lat="43.6203" lon="5.42943">
        <ele>443.03125</ele>
      </trkpt>
      <trkpt lat="43.61992" lon="5.42896">
        <ele>444</ele>
      </trkpt>
      <trkpt lat="43.61957" lon="5.42846">
        <ele>444.7578125</ele>
      </trkpt>
      <trkpt lat="43.61921" lon="5.428">
        <ele>446.1054688</ele>
      </trkpt>
      <trkpt lat="43.6189" lon="5.42772">
        <ele>446.203125</ele>
      </trkpt>
      <trkpt lat="43.61874" lon="5.42748">
        <ele>446.4257813</ele>
      </trkpt>
      <trkpt lat="43.61848" lon="5.42746">
        <ele>445.4414063</ele>
      </trkpt>
      <trkpt lat="43.61826" lon="5.42734">
        <ele>444.5039063</ele>
      </trkpt>
      <trkpt lat="43.61793" lon="5.42744">
        <ele>442.2734375</ele>
      </trkpt>
      <trkpt lat="43.61793" lon="5.42746">
        <ele>442.2617188</ele>
      </trkpt>
      <trkpt lat="43.6176" lon="5.42756">
        <ele>439.9765625</ele>
      </trkpt>
      <trkpt lat="43.6176" lon="5.42749">
        <ele>440.0898438</ele>
      </trkpt>
      <trkpt lat="43.61727" lon="5.42726">
        <ele>437.65625</ele>
      </trkpt>
      <trkpt lat="43.61679" lon="5.427">
        <ele>435.9140625</ele>
      </trkpt>
      <trkpt lat="43.61636" lon="5.42667">
        <ele>436.5078125</ele>
      </trkpt>
      <trkpt lat="43.61639" lon="5.42667">
        <ele>436.4101563</ele>
      </trkpt>
      <trkpt lat="43.61597" lon="5.42646">
        <ele>438.6835938</ele>
      </trkpt>
      <trkpt lat="43.616" lon="5.42647">
        <ele>438.5273438</ele>
      </trkpt>
      <trkpt lat="43.61557" lon="5.42619">
        <ele>442.0351563</ele>
      </trkpt>
      <trkpt lat="43.61511" lon="5.42601">
        <ele>444.390625</ele>
      </trkpt>
      <trkpt lat="43.61477" lon="5.42593">
        <ele>445.1132813</ele>
      </trkpt>
      <trkpt lat="43.61479" lon="5.42593">
        <ele>445.0742188</ele>
      </trkpt>
      <trkpt lat="43.61449" lon="5.426">
        <ele>445.6835938</ele>
      </trkpt>
      <trkpt lat="43.61422" lon="5.42616">
        <ele>446.0625</ele>
      </trkpt>
      <trkpt lat="43.61422" lon="5.42618">
        <ele>446.0039063</ele>
      </trkpt>
      <trkpt lat="43.61374" lon="5.42614">
        <ele>447.8671875</ele>
      </trkpt>
      <trkpt lat="43.61336" lon="5.42616">
        <ele>447.921875</ele>
      </trkpt>
      <trkpt lat="43.61312" lon="5.42609">
        <ele>448.0390625</ele>
      </trkpt>
      <trkpt lat="43.61263" lon="5.42629">
        <ele>445.5820313</ele>
      </trkpt>
      <trkpt lat="43.61264" lon="5.42631">
        <ele>445.5703125</ele>
      </trkpt>
      <trkpt lat="43.61232" lon="5.42623">
        <ele>444.0273438</ele>
      </trkpt>
      <trkpt lat="43.61186" lon="5.42623">
        <ele>442.0507813</ele>
      </trkpt>
      <trkpt lat="43.61193" lon="5.42626">
        <ele>442.1757813</ele>
      </trkpt>
      <trkpt lat="43.61196" lon="5.42629">
        <ele>442.15625</ele>
      </trkpt>
      <trkpt lat="43.61139" lon="5.42613">
        <ele>439.0039063</ele>
      </trkpt>
      <trkpt lat="43.61142" lon="5.42613">
        <ele>439.2929688</ele>
      </trkpt>
      <trkpt lat="43.61093" lon="5.42614">
        <ele>434.0351563</ele>
      </trkpt>
      <trkpt lat="43.61095" lon="5.42616">
        <ele>434.125</ele>
      </trkpt>
      <trkpt lat="43.61105" lon="5.42659">
        <ele>434.5351563</ele>
      </trkpt>
      <trkpt lat="43.61105" lon="5.4266">
        <ele>434.5078125</ele>
      </trkpt>
      <trkpt lat="43.61101" lon="5.42736">
        <ele>431.65625</ele>
      </trkpt>
      <trkpt lat="43.61097" lon="5.42779">
        <ele>428.7070313</ele>
      </trkpt>
      <trkpt lat="43.61124" lon="5.42818">
        <ele>432.9023438</ele>
      </trkpt>
      <trkpt lat="43.61127" lon="5.42818">
        <ele>433.2890625</ele>
      </trkpt>
      <trkpt lat="43.61101" lon="5.42856">
        <ele>430.9609375</ele>
      </trkpt>
      <trkpt lat="43.61078" lon="5.42929">
        <ele>429.0742188</ele>
      </trkpt>
      <trkpt lat="43.61078" lon="5.4293">
        <ele>429.1054688</ele>
      </trkpt>
      <trkpt lat="43.61064" lon="5.43004">
        <ele>424.6328125</ele>
      </trkpt>
      <trkpt lat="43.6106" lon="5.43086">
        <ele>419.6015625</ele>
      </trkpt>
      <trkpt lat="43.6106" lon="5.43088">
        <ele>419.5429688</ele>
      </trkpt>
      <trkpt lat="43.61056" lon="5.43136">
        <ele>417.078125</ele>
      </trkpt>
      <trkpt lat="43.61058" lon="5.43139">
        <ele>417.5898438</ele>
      </trkpt>
      <trkpt lat="43.61029" lon="5.43162">
        <ele>410.5</ele>
      </trkpt>
      <trkpt lat="43.61029" lon="5.43164">
        <ele>410.5</ele>
      </trkpt>
      <trkpt lat="43.61018" lon="5.43211">
        <ele>407.234375</ele>
      </trkpt>
      <trkpt lat="43.61027" lon="5.43276">
        <ele>408.9375</ele>
      </trkpt>
      <trkpt lat="43.61029" lon="5.43276">
        <ele>409.234375</ele>
      </trkpt>
      <trkpt lat="43.6103" lon="5.43338">
        <ele>407.4492188</ele>
      </trkpt>
      <trkpt lat="43.61031" lon="5.43338">
        <ele>407.5507813</ele>
      </trkpt>
      <trkpt lat="43.61031" lon="5.43396">
        <ele>407.3867188</ele>
      </trkpt>
      <trkpt lat="43.6105" lon="5.43468">
        <ele>410.59375</ele>
      </trkpt>
      <trkpt lat="43.61073" lon="5.43508">
        <ele>412.7734375</ele>
      </trkpt>
      <trkpt lat="43.61076" lon="5.43508">
        <ele>412.9648438</ele>
      </trkpt>
      <trkpt lat="43.6112" lon="5.43537">
        <ele>415.2617188</ele>
      </trkpt>
      <trkpt lat="43.61153" lon="5.43562">
        <ele>416</ele>
      </trkpt>
      <trkpt lat="43.61155" lon="5.43563">
        <ele>416</ele>
      </trkpt>
      <trkpt lat="43.61103" lon="5.43565">
        <ele>416.265625</ele>
      </trkpt>
      <trkpt lat="43.61104" lon="5.43565">
        <ele>416.265625</ele>
      </trkpt>
      <trkpt lat="43.61043" lon="5.43588">
        <ele>415.4921875</ele>
      </trkpt>
      <trkpt lat="43.61012" lon="5.43595">
        <ele>415.1054688</ele>
      </trkpt>
      <trkpt lat="43.61045" lon="5.43784">
        <ele>434.1484375</ele>
      </trkpt>
      <trkpt lat="43.61045" lon="5.43786">
        <ele>434.2070313</ele>
      </trkpt>
      <trkpt lat="43.61077" lon="5.43832">
        <ele>434.5664063</ele>
      </trkpt>
      <trkpt lat="43.6114" lon="5.43962">
        <ele>439.546875</ele>
      </trkpt>
      <trkpt lat="43.61142" lon="5.4396">
        <ele>439.4882813</ele>
      </trkpt>
      <trkpt lat="43.61174" lon="5.44093">
        <ele>443</ele>
      </trkpt>
      <trkpt lat="43.61175" lon="5.44096">
        <ele>443</ele>
      </trkpt>
      <trkpt lat="43.61181" lon="5.44185">
        <ele>443.828125</ele>
      </trkpt>
      <trkpt lat="43.6119" lon="5.44279">
        <ele>445.984375</ele>
      </trkpt>
      <trkpt lat="43.61192" lon="5.44281">
        <ele>446</ele>
      </trkpt>
      <trkpt lat="43.61189" lon="5.44368">
        <ele>445.9023438</ele>
      </trkpt>
      <trkpt lat="43.61193" lon="5.44432">
        <ele>445.3007813</ele>
      </trkpt>
      <trkpt lat="43.61194" lon="5.44439">
        <ele>445.4804688</ele>
      </trkpt>
      <trkpt lat="43.61223" lon="5.44486">
        <ele>446.9804688</ele>
      </trkpt>
      <trkpt lat="43.61256" lon="5.44495">
        <ele>448.6367188</ele>
      </trkpt>
      <trkpt lat="43.61322" lon="5.44467">
        <ele>451.0078125</ele>
      </trkpt>
      <trkpt lat="43.61324" lon="5.44463">
        <ele>450.9375</ele>
      </trkpt>
      <trkpt lat="43.61375" lon="5.44445">
        <ele>451.9726563</ele>
      </trkpt>
      <trkpt lat="43.61376" lon="5.44448">
        <ele>452.0859375</ele>
      </trkpt>
      <trkpt lat="43.61422" lon="5.44432">
        <ele>452</ele>
      </trkpt>
      <trkpt lat="43.61425" lon="5.44427">
        <ele>452</ele>
      </trkpt>
      <trkpt lat="43.61461" lon="5.44374">
        <ele>447.6171875</ele>
      </trkpt>
      <trkpt lat="43.61465" lon="5.44374">
        <ele>447.1796875</ele>
      </trkpt>
      <trkpt lat="43.61498" lon="5.44327">
        <ele>442.5429688</ele>
      </trkpt>
      <trkpt lat="43.61511" lon="5.44284">
        <ele>440.1601563</ele>
      </trkpt>
      <trkpt lat="43.61512" lon="5.44282">
        <ele>440.1015625</ele>
      </trkpt>
      <trkpt lat="43.6151" lon="5.4421">
        <ele>440.4804688</ele>
      </trkpt>
      <trkpt lat="43.61531" lon="5.44138">
        <ele>439.1835938</ele>
      </trkpt>
      <trkpt lat="43.61542" lon="5.44106">
        <ele>438.625</ele>
      </trkpt>
      <trkpt lat="43.61543" lon="5.44106">
        <ele>438.5859375</ele>
      </trkpt>
      <trkpt lat="43.61568" lon="5.44078">
        <ele>437.7539063</ele>
      </trkpt>
      <trkpt lat="43.61569" lon="5.44078">
        <ele>437.7539063</ele>
      </trkpt>
      <trkpt lat="43.61592" lon="5.44098">
        <ele>438</ele>
      </trkpt>
      <trkpt lat="43.61584" lon="5.44126">
        <ele>438.3242188</ele>
      </trkpt>
      <trkpt lat="43.61626" lon="5.44134">
        <ele>440.1484375</ele>
      </trkpt>
      <trkpt lat="43.61627" lon="5.44136">
        <ele>440.3046875</ele>
      </trkpt>
      <trkpt lat="43.61658" lon="5.44174">
        <ele>443.7773438</ele>
      </trkpt>
      <trkpt lat="43.61657" lon="5.4422">
        <ele>444.5078125</ele>
      </trkpt>
      <trkpt lat="43.61679" lon="5.44235">
        <ele>446.2617188</ele>
      </trkpt>
      <trkpt lat="43.61679" lon="5.44236">
        <ele>446.2617188</ele>
      </trkpt>
      <trkpt lat="43.61706" lon="5.44197">
        <ele>448.203125</ele>
      </trkpt>
      <trkpt lat="43.61708" lon="5.44197">
        <ele>448.3007813</ele>
      </trkpt>
      <trkpt lat="43.61759" lon="5.44118">
        <ele>451.984375</ele>
      </trkpt>
      <trkpt lat="43.61814" lon="5.44147">
        <ele>455.9726563</ele>
      </trkpt>
      <trkpt lat="43.61814" lon="5.44152">
        <ele>455.9726563</ele>
      </trkpt>
      <trkpt lat="43.61868" lon="5.44177">
        <ele>460.8554688</ele>
      </trkpt>
      <trkpt lat="43.61899" lon="5.44198">
        <ele>463.125</ele>
      </trkpt>
      <trkpt lat="43.61909" lon="5.44138">
        <ele>462</ele>
      </trkpt>
      <trkpt lat="43.61909" lon="5.44139">
        <ele>462</ele>
      </trkpt>
      <trkpt lat="43.61937" lon="5.4409">
        <ele>461.5976563</ele>
      </trkpt>
      <trkpt lat="43.61938" lon="5.4409">
        <ele>461.5507813</ele>
      </trkpt>
      <trkpt lat="43.61983" lon="5.4407">
        <ele>459.9453125</ele>
      </trkpt>
      <trkpt lat="43.61984" lon="5.44068">
        <ele>459.8984375</ele>
      </trkpt>
      <trkpt lat="43.62035" lon="5.44067">
        <ele>457.109375</ele>
      </trkpt>
      <trkpt lat="43.62028" lon="5.44133">
        <ele>457.59375</ele>
      </trkpt>
      <trkpt lat="43.62006" lon="5.4421">
        <ele>462.1132813</ele>
      </trkpt>
      <trkpt lat="43.61995" lon="5.44276">
        <ele>466.8007813</ele>
      </trkpt>
      <trkpt lat="43.61995" lon="5.44277">
        <ele>466.8867188</ele>
      </trkpt>
      <trkpt lat="43.6202" lon="5.44348">
        <ele>471.9453125</ele>
      </trkpt>
      <trkpt lat="43.62015" lon="5.44356">
        <ele>472.5390625</ele>
      </trkpt>
      <trkpt lat="43.62006" lon="5.44437">
        <ele>478.671875</ele>
      </trkpt>
      <trkpt lat="43.62006" lon="5.44442">
        <ele>478.8515625</ele>
      </trkpt>
      <trkpt lat="43.62028" lon="5.44509">
        <ele>481.578125</ele>
      </trkpt>
      <trkpt lat="43.62049" lon="5.44577">
        <ele>483.2773438</ele>
      </trkpt>
      <trkpt lat="43.62068" lon="5.44621">
        <ele>485.1992188</ele>
      </trkpt>
      <trkpt lat="43.62046" lon="5.44703">
        <ele>487.2695313</ele>
      </trkpt>
      <trkpt lat="43.62061" lon="5.44756">
        <ele>489.1679688</ele>
      </trkpt>
      <trkpt lat="43.62053" lon="5.44824">
        <ele>490.8515625</ele>
      </trkpt>
      <trkpt lat="43.62053" lon="5.4487">
        <ele>491.421875</ele>
      </trkpt>
      <trkpt lat="43.62054" lon="5.44871">
        <ele>491.375</ele>
      </trkpt>
      <trkpt lat="43.62055" lon="5.44934">
        <ele>487.5664063</ele>
      </trkpt>
      <trkpt lat="43.62006" lon="5.44972">
        <ele>484.515625</ele>
      </trkpt>
      <trkpt lat="43.62006" lon="5.44973">
        <ele>484.2890625</ele>
      </trkpt>
      <trkpt lat="43.61942" lon="5.45013">
        <ele>482.0976563</ele>
      </trkpt>
      <trkpt lat="43.61942" lon="5.45016">
        <ele>481.3164063</ele>
      </trkpt>
      <trkpt lat="43.6189" lon="5.45054">
        <ele>475.3945313</ele>
      </trkpt>
      <trkpt lat="43.61821" lon="5.45095">
        <ele>469.328125</ele>
      </trkpt>
      <trkpt lat="43.6177" lon="5.4512">
        <ele>468.6210938</ele>
      </trkpt>
      <trkpt lat="43.61736" lon="5.45139">
        <ele>469.4296875</ele>
      </trkpt>
      <trkpt lat="43.61736" lon="5.45141">
        <ele>469.1445313</ele>
      </trkpt>
      <trkpt lat="43.61709" lon="5.45169">
        <ele>469.5976563</ele>
      </trkpt>
      <trkpt lat="43.61685" lon="5.45202">
        <ele>468.3945313</ele>
      </trkpt>
      <trkpt lat="43.61686" lon="5.45203">
        <ele>467.8828125</ele>
      </trkpt>
      <trkpt lat="43.61701" lon="5.45215">
        <ele>463.0234375</ele>
      </trkpt>
      <trkpt lat="43.61705" lon="5.45218">
        <ele>461.5429688</ele>
      </trkpt>
      <trkpt lat="43.61775" lon="5.45184">
        <ele>452.3398438</ele>
      </trkpt>
      <trkpt lat="43.61849" lon="5.45177">
        <ele>439.5703125</ele>
      </trkpt>
      <trkpt lat="43.61849" lon="5.45182">
        <ele>438.1445313</ele>
      </trkpt>
      <trkpt lat="43.61914" lon="5.45169">
        <ele>433.9882813</ele>
      </trkpt>
      <trkpt lat="43.61917" lon="5.45169">
        <ele>433.6953125</ele>
      </trkpt>
      <trkpt lat="43.61983" lon="5.45164">
        <ele>427.9375</ele>
      </trkpt>
      <trkpt lat="43.61985" lon="5.45166">
        <ele>427.1679688</ele>
      </trkpt>
      <trkpt lat="43.62058" lon="5.45149">
        <ele>421.6132813</ele>
      </trkpt>
      <trkpt lat="43.62143" lon="5.4512">
        <ele>417.8476563</ele>
      </trkpt>
      <trkpt lat="43.62146" lon="5.45121">
        <ele>417.0429688</ele>
      </trkpt>
      <trkpt lat="43.6219" lon="5.45083">
        <ele>419.765625</ele>
      </trkpt>
      <trkpt lat="43.62194" lon="5.45083">
        <ele>419.3242188</ele>
      </trkpt>
      <trkpt lat="43.62251" lon="5.45064">
        <ele>419.265625</ele>
      </trkpt>
      <trkpt lat="43.62254" lon="5.45064">
        <ele>419.0976563</ele>
      </trkpt>
      <trkpt lat="43.62329" lon="5.4506">
        <ele>418.6132813</ele>
      </trkpt>
      <trkpt lat="43.62332" lon="5.45059">
        <ele>418.7929688</ele>
      </trkpt>
      <trkpt lat="43.62394" lon="5.45044">
        <ele>419.0078125</ele>
      </trkpt>
      <trkpt lat="43.62398" lon="5.45044">
        <ele>418.8515625</ele>
      </trkpt>
      <trkpt lat="43.62434" lon="5.45016">
        <ele>421.7851563</ele>
      </trkpt>
      <trkpt lat="43.62435" lon="5.45016">
        <ele>421.6875</ele>
      </trkpt>
      <trkpt lat="43.62496" lon="5.44978">
        <ele>421.3164063</ele>
      </trkpt>
      <trkpt lat="43.62504" lon="5.44978">
        <ele>420.6875</ele>
      </trkpt>
      <trkpt lat="43.62546" lon="5.44953">
        <ele>421.453125</ele>
      </trkpt>
      <trkpt lat="43.62551" lon="5.44953">
        <ele>421.2070313</ele>
      </trkpt>
      <trkpt lat="43.62588" lon="5.44876">
        <ele>432.28125</ele>
      </trkpt>
      <trkpt lat="43.62589" lon="5.44876">
        <ele>432.3515625</ele>
      </trkpt>
      <trkpt lat="43.62631" lon="5.44832">
        <ele>429.78125</ele>
      </trkpt>
      <trkpt lat="43.62631" lon="5.44833">
        <ele>429.8984375</ele>
      </trkpt>
      <trkpt lat="43.6265" lon="5.44832">
        <ele>426.0703125</ele>
      </trkpt>
      <trkpt lat="43.62658" lon="5.44731">
        <ele>415.6953125</ele>
      </trkpt>
      <trkpt lat="43.62681" lon="5.44667">
        <ele>406.9804688</ele>
      </trkpt>
      <trkpt lat="43.62698" lon="5.44633">
        <ele>402.53125</ele>
      </trkpt>
      <trkpt lat="43.62702" lon="5.44631">
        <ele>401.7851563</ele>
      </trkpt>
      <trkpt lat="43.62735" lon="5.44608">
        <ele>397.46875</ele>
      </trkpt>
      <trkpt lat="43.62764" lon="5.44557">
        <ele>394.96875</ele>
      </trkpt>
      <trkpt lat="43.62764" lon="5.44555">
        <ele>395.0273438</ele>
      </trkpt>
      <trkpt lat="43.62793" lon="5.44516">
        <ele>391.4921875</ele>
      </trkpt>
      <trkpt lat="43.62811" lon="5.44491">
        <ele>389.2773438</ele>
      </trkpt>
      <trkpt lat="43.6284" lon="5.44358">
        <ele>396.3984375</ele>
      </trkpt>
      <trkpt lat="43.6284" lon="5.4436">
        <ele>396.3359375</ele>
      </trkpt>
      <trkpt lat="43.62841" lon="5.443">
        <ele>397.3789063</ele>
      </trkpt>
      <trkpt lat="43.62842" lon="5.443">
        <ele>397.1523438</ele>
      </trkpt>
      <trkpt lat="43.6286" lon="5.44221">
        <ele>397.4179688</ele>
      </trkpt>
      <trkpt lat="43.62891" lon="5.44093">
        <ele>394.3242188</ele>
      </trkpt>
      <trkpt lat="43.6288" lon="5.44054">
        <ele>399.1367188</ele>
      </trkpt>
      <trkpt lat="43.62902" lon="5.43998">
        <ele>396.1914063</ele>
      </trkpt>
      <trkpt lat="43.62919" lon="5.43934">
        <ele>396.3984375</ele>
      </trkpt>
      <trkpt lat="43.62942" lon="5.43855">
        <ele>395.1914063</ele>
      </trkpt>
      <trkpt lat="43.62943" lon="5.43781">
        <ele>399.609375</ele>
      </trkpt>
      <trkpt lat="43.62942" lon="5.43703">
        <ele>404.5273438</ele>
      </trkpt>
      <trkpt lat="43.63001" lon="5.43677">
        <ele>403.953125</ele>
      </trkpt>
      <trkpt lat="43.63003" lon="5.43677">
        <ele>403.90625</ele>
      </trkpt>
      <trkpt lat="43.63045" lon="5.43621">
        <ele>402.6953125</ele>
      </trkpt>
      <trkpt lat="43.63045" lon="5.43623">
        <ele>402.6953125</ele>
      </trkpt>
      <trkpt lat="43.63058" lon="5.43572">
        <ele>402.2109375</ele>
      </trkpt>
      <trkpt lat="43.63092" lon="5.4354">
        <ele>399.6171875</ele>
      </trkpt>
      <trkpt lat="43.63093" lon="5.43539">
        <ele>399.515625</ele>
      </trkpt>
      <trkpt lat="43.63119" lon="5.43514">
        <ele>397.0820313</ele>
      </trkpt>
      <trkpt lat="43.63147" lon="5.43481">
        <ele>392.5507813</ele>
      </trkpt>
      <trkpt lat="43.63164" lon="5.43443">
        <ele>393.4414063</ele>
      </trkpt>
      <trkpt lat="43.63191" lon="5.43396">
        <ele>396.03125</ele>
      </trkpt>
      <trkpt lat="43.63221" lon="5.43386">
        <ele>394.9101563</ele>
      </trkpt>
      <trkpt lat="43.63256" lon="5.43358">
        <ele>397.1328125</ele>
      </trkpt>
      <trkpt lat="43.63268" lon="5.43318">
        <ele>402.1054688</ele>
      </trkpt>
      <trkpt lat="43.63302" lon="5.43277">
        <ele>405</ele>
      </trkpt>
      <trkpt lat="43.63305" lon="5.43277">
        <ele>405</ele>
      </trkpt>
      <trkpt lat="43.63346" lon="5.43249">
        <ele>403.84375</ele>
      </trkpt>
      <trkpt lat="43.63348" lon="5.43251">
        <ele>403.7851563</ele>
      </trkpt>
      <trkpt lat="43.63373" lon="5.43258">
        <ele>402.4921875</ele>
      </trkpt>
      <trkpt lat="43.63401" lon="5.43326">
        <ele>407.74</ele>
        <time>2016-10-27T12:48:49Z</time>
      </trkpt>
      <trkpt lat="43.63404" lon="5.43334">
        <ele>406.29</ele>
        <time>2016-10-27T12:49:04Z</time>
      </trkpt>
      <trkpt lat="43.63406" lon="5.43342">
        <ele>404.85</ele>
        <time>2016-10-27T12:49:24Z</time>
      </trkpt>
      <trkpt lat="43.63406" lon="5.43346">
        <ele>404.85</ele>
        <time>2016-10-27T12:49:41Z</time>
      </trkpt>
      <trkpt lat="43.63405" lon="5.43348">
        <ele>404.85</ele>
        <time>2016-10-27T12:50:06Z</time>
      </trkpt>
      <trkpt lat="43.63408" lon="5.43344">
        <ele>404.37</ele>
        <time>2016-10-27T12:50:21Z</time>
      </trkpt>
      <trkpt lat="43.63407" lon="5.43344">
        <ele>404.85</ele>
        <time>2016-10-27T12:50:39Z</time>
      </trkpt>
      <trkpt lat="43.63409" lon="5.43341">
        <ele>404.85</ele>
        <time>2016-10-27T12:51:09Z</time>
      </trkpt>
      <trkpt lat="43.63408" lon="5.43344">
        <ele>404.85</ele>
        <time>2016-10-27T12:51:44Z</time>
      </trkpt>
      <trkpt lat="43.63406" lon="5.43338">
        <ele>403.89</ele>
        <time>2016-10-27T12:52:03Z</time>
      </trkpt>
      <trkpt lat="43.6341" lon="5.43339">
        <ele>404.37</ele>
        <time>2016-10-27T12:52:32Z</time>
      </trkpt>
      <trkpt lat="43.63418" lon="5.43343">
        <ele>404.37</ele>
        <time>2016-10-27T12:53:11Z</time>
      </trkpt>
      <trkpt lat="43.63419" lon="5.43344">
        <ele>403.89</ele>
        <time>2016-10-27T12:53:45Z</time>
      </trkpt>
      <trkpt lat="43.63419" lon="5.43342">
        <ele>404.37</ele>
        <time>2016-10-27T12:54:20Z</time>
      </trkpt>
      <trkpt lat="43.63426" lon="5.43346">
        <ele>404.37</ele>
        <time>2016-10-27T12:54:56Z</time>
      </trkpt>
      <trkpt lat="43.63426" lon="5.43343">
        <ele>404.37</ele>
        <time>2016-10-27T12:55:23Z</time>
      </trkpt>
      <trkpt lat="43.63419" lon="5.43344">
        <ele>404.85</ele>
        <time>2016-10-27T12:56:00Z</time>
      </trkpt>
      <trkpt lat="43.63413" lon="5.43342">
        <ele>405.33</ele>
        <time>2016-10-27T12:56:32Z</time>
      </trkpt>
      <trkpt lat="43.63408" lon="5.43334">
        <ele>405.33</ele>
        <time>2016-10-27T12:57:04Z</time>
      </trkpt>
      <trkpt lat="43.63414" lon="5.43337">
        <ele>405.33</ele>
        <time>2016-10-27T12:57:44Z</time>
      </trkpt>
      <trkpt lat="43.63413" lon="5.43346">
        <ele>405.33</ele>
        <time>2016-10-27T12:58:13Z</time>
      </trkpt>
      <trkpt lat="43.63416" lon="5.43343">
        <ele>405.33</ele>
        <time>2016-10-27T12:58:48Z</time>
      </trkpt>
      <trkpt lat="43.63409" lon="5.4334">
        <ele>405.33</ele>
        <time>2016-10-27T12:59:18Z</time>
      </trkpt>
      <trkpt lat="43.63406" lon="5.43341">
        <ele>405.33</ele>
        <time>2016-10-27T12:59:39Z</time>
      </trkpt>
      <trkpt lat="43.63409" lon="5.43327">
        <ele>405.81</ele>
        <time>2016-10-27T13:00:04Z</time>
      </trkpt>
      <trkpt lat="43.63411" lon="5.4334">
        <ele>405.81</ele>
        <time>2016-10-27T13:00:30Z</time>
      </trkpt>
      <trkpt lat="43.63412" lon="5.43335">
        <ele>405.81</ele>
        <time>2016-10-27T13:00:58Z</time>
      </trkpt>
      <trkpt lat="43.6341" lon="5.43337">
        <ele>405.81</ele>
        <time>2016-10-27T13:01:25Z</time>
      </trkpt>
      <trkpt lat="43.63405" lon="5.43342">
        <ele>405.33</ele>
        <time>2016-10-27T13:01:53Z</time>
      </trkpt>
      <trkpt lat="43.63405" lon="5.43343">
        <ele>404.85</ele>
        <time>2016-10-27T13:02:29Z</time>
      </trkpt>
      <trkpt lat="43.63406" lon="5.43341">
        <ele>404.85</ele>
        <time>2016-10-27T13:03:11Z</time>
      </trkpt>
      <trkpt lat="43.63408" lon="5.43342">
        <ele>404.85</ele>
        <time>2016-10-27T13:03:42Z</time>
      </trkpt>
      <trkpt lat="43.63407" lon="5.43339">
        <ele>404.85</ele>
        <time>2016-10-27T13:04:14Z</time>
      </trkpt>
      <trkpt lat="43.6341" lon="5.43344">
        <ele>404.37</ele>
        <time>2016-10-27T13:04:23Z</time>
      </trkpt>
      <trkpt lat="43.63421" lon="5.43346">
        <ele>404.37</ele>
        <time>2016-10-27T13:04:38Z</time>
      </trkpt>
      <trkpt lat="43.63469" lon="5.43339">
        <ele>404.37</ele>
        <time>2016-10-27T13:04:59Z</time>
      </trkpt>
      <trkpt lat="43.63465" lon="5.43339">
        <ele>404.37</ele>
        <time>2016-10-27T13:05:12Z</time>
      </trkpt>
      <trkpt lat="43.63405" lon="5.43344">
        <ele>405.33</ele>
        <time>2016-10-27T13:05:51Z</time>
      </trkpt>
      <trkpt lat="43.63408" lon="5.43342">
        <ele>404.37</ele>
        <time>2016-10-27T13:06:26Z</time>
      </trkpt>
      <trkpt lat="43.63412" lon="5.43345">
        <ele>404.37</ele>
        <time>2016-10-27T13:06:53Z</time>
      </trkpt>
      <trkpt lat="43.63413" lon="5.43348">
        <ele>404.85</ele>
        <time>2016-10-27T13:07:27Z</time>
      </trkpt>
      <trkpt lat="43.63407" lon="5.43348">
        <ele>404.85</ele>
        <time>2016-10-27T13:07:54Z</time>
      </trkpt>
      <trkpt lat="43.63404" lon="5.4335">
        <ele>404.85</ele>
        <time>2016-10-27T13:08:32Z</time>
      </trkpt>
      <trkpt lat="43.63403" lon="5.43347">
        <ele>404.85</ele>
        <time>2016-10-27T13:09:10Z</time>
      </trkpt>
      <trkpt lat="43.63404" lon="5.43345">
        <ele>404.85</ele>
        <time>2016-10-27T13:09:44Z</time>
      </trkpt>
      <trkpt lat="43.63403" lon="5.43347">
        <ele>404.85</ele>
        <time>2016-10-27T13:10:12Z</time>
      </trkpt>
      <trkpt lat="43.63405" lon="5.43345">
        <ele>404.85</ele>
        <time>2016-10-27T13:10:47Z</time>
      </trkpt>
      <trkpt lat="43.63404" lon="5.43349">
        <ele>404.85</ele>
        <time>2016-10-27T13:11:19Z</time>
      </trkpt>
      <trkpt lat="43.63404" lon="5.43349">
        <ele>404.85</ele>
        <time>2016-10-27T13:11:30Z</time>
      </trkpt>
      <trkpt lat="43.63406" lon="5.43348">
        <ele>404.85</ele>
        <time>2016-10-27T13:12:04Z</time>
      </trkpt>
      <trkpt lat="43.63403" lon="5.43347">
        <ele>404.85</ele>
        <time>2016-10-27T13:12:41Z</time>
      </trkpt>
      <trkpt lat="43.63404" lon="5.43346">
        <ele>404.85</ele>
        <time>2016-10-27T13:13:09Z</time>
      </trkpt>
      <trkpt lat="43.63409" lon="5.43345">
        <ele>404.85</ele>
        <time>2016-10-27T13:13:37Z</time>
      </trkpt>
      <trkpt lat="43.63407" lon="5.4335">
        <ele>404.85</ele>
        <time>2016-10-27T13:14:08Z</time>
      </trkpt>
      <trkpt lat="43.63406" lon="5.43343">
        <ele>404.85</ele>
        <time>2016-10-27T13:14:38Z</time>
      </trkpt>
      <trkpt lat="43.63405" lon="5.43343">
        <ele>404.85</ele>
        <time>2016-10-27T13:15:15Z</time>
      </trkpt>
      <trkpt lat="43.63403" lon="5.43348">
        <ele>405.33</ele>
        <time>2016-10-27T13:15:55Z</time>
      </trkpt>
      <trkpt lat="43.63406" lon="5.43351">
        <ele>405.33</ele>
        <time>2016-10-27T13:16:34Z</time>
      </trkpt>
      <trkpt lat="43.63405" lon="5.43344">
        <ele>405.33</ele>
        <time>2016-10-27T13:17:24Z</time>
      </trkpt>
      <trkpt lat="43.63406" lon="5.43342">
        <ele>405.33</ele>
        <time>2016-10-27T13:18:03Z</time>
      </trkpt>
      <trkpt lat="43.63408" lon="5.43347">
        <ele>405.33</ele>
        <time>2016-10-27T13:18:30Z</time>
      </trkpt>
      <trkpt lat="43.63409" lon="5.43348">
        <ele>405.81</ele>
        <time>2016-10-27T13:19:03Z</time>
      </trkpt>
      <trkpt lat="43.63405" lon="5.43349">
        <ele>405.81</ele>
        <time>2016-10-27T13:19:42Z</time>
      </trkpt>
      <trkpt lat="43.63409" lon="5.43345">
        <ele>405.81</ele>
        <time>2016-10-27T13:20:20Z</time>
      </trkpt>
      <trkpt lat="43.6341" lon="5.43345">
        <ele>405.81</ele>
        <time>2016-10-27T13:20:44Z</time>
      </trkpt>
      <trkpt lat="43.63407" lon="5.43347">
        <ele>405.81</ele>
        <time>2016-10-27T13:21:08Z</time>
      </trkpt>
      <trkpt lat="43.63406" lon="5.4335">
        <ele>405.33</ele>
        <time>2016-10-27T13:21:42Z</time>
      </trkpt>
      <trkpt lat="43.63408" lon="5.4335">
        <ele>405.33</ele>
        <time>2016-10-27T13:22:12Z</time>
      </trkpt>
      <trkpt lat="43.63408" lon="5.43347">
        <ele>405.81</ele>
        <time>2016-10-27T13:22:19Z</time>
      </trkpt>
      <trkpt lat="43.63406" lon="5.43345">
        <ele>403.41</ele>
        <time>2016-10-27T13:22:50Z</time>
      </trkpt>
      <trkpt lat="43.63405" lon="5.43344">
        <ele>404.85</ele>
        <time>2016-10-27T13:23:04Z</time>
      </trkpt>
      <trkpt lat="43.6341" lon="5.43345">
        <ele>403.89</ele>
        <time>2016-10-27T13:23:43Z</time>
      </trkpt>
      <trkpt lat="43.63413" lon="5.43347">
        <ele>405.33</ele>
        <time>2016-10-27T13:24:18Z</time>
      </trkpt>
      <trkpt lat="43.63423" lon="5.4335">
        <ele>405.33</ele>
        <time>2016-10-27T13:24:54Z</time>
      </trkpt>
      <trkpt lat="43.63418" lon="5.43352">
        <ele>405.81</ele>
        <time>2016-10-27T13:25:27Z</time>
      </trkpt>
      <trkpt lat="43.63416" lon="5.43357">
        <ele>405.81</ele>
        <time>2016-10-27T13:25:57Z</time>
      </trkpt>
      <trkpt lat="43.63408" lon="5.43357">
        <ele>406.29</ele>
        <time>2016-10-27T13:26:30Z</time>
      </trkpt>
      <trkpt lat="43.63411" lon="5.43343">
        <ele>406.29</ele>
        <time>2016-10-27T13:26:57Z</time>
      </trkpt>
      <trkpt lat="43.63411" lon="5.43336">
        <ele>406.29</ele>
        <time>2016-10-27T13:27:21Z</time>
      </trkpt>
      <trkpt lat="43.63415" lon="5.43332">
        <ele>406.29</ele>
        <time>2016-10-27T13:27:56Z</time>
      </trkpt>
      <trkpt lat="43.63413" lon="5.43331">
        <ele>406.29</ele>
        <time>2016-10-27T13:28:36Z</time>
      </trkpt>
      <trkpt lat="43.63414" lon="5.43337">
        <ele>406.77</ele>
        <time>2016-10-27T13:29:12Z</time>
      </trkpt>
      <trkpt lat="43.63414" lon="5.43331">
        <ele>407.26</ele>
        <time>2016-10-27T13:29:48Z</time>
      </trkpt>
      <trkpt lat="43.63413" lon="5.43327">
        <ele>407.26</ele>
        <time>2016-10-27T13:30:18Z</time>
      </trkpt>
      <trkpt lat="43.63405" lon="5.43323">
        <ele>407.26</ele>
        <time>2016-10-27T13:30:56Z</time>
      </trkpt>
      <trkpt lat="43.63404" lon="5.4332">
        <ele>407.74</ele>
        <time>2016-10-27T13:31:29Z</time>
      </trkpt>
      <trkpt lat="43.63409" lon="5.43329">
        <ele>408.22</ele>
        <time>2016-10-27T13:32:00Z</time>
      </trkpt>
      <trkpt lat="43.63411" lon="5.43331">
        <ele>408.22</ele>
        <time>2016-10-27T13:32:31Z</time>
      </trkpt>
      <trkpt lat="43.63408" lon="5.43331">
        <ele>408.22</ele>
        <time>2016-10-27T13:33:02Z</time>
      </trkpt>
      <trkpt lat="43.63407" lon="5.4333">
        <ele>407.74</ele>
        <time>2016-10-27T13:33:39Z</time>
      </trkpt>
      <trkpt lat="43.63409" lon="5.43328">
        <ele>408.22</ele>
        <time>2016-10-27T13:34:03Z</time>
      </trkpt>
      <trkpt lat="43.63403" lon="5.43315">
        <ele>408.22</ele>
        <time>2016-10-27T13:34:35Z</time>
      </trkpt>
      <trkpt lat="43.63403" lon="5.43319">
        <ele>409.18</ele>
        <time>2016-10-27T13:34:53Z</time>
      </trkpt>
      <trkpt lat="43.63412" lon="5.43321">
        <ele>408.22</ele>
        <time>2016-10-27T13:37:58Z</time>
      </trkpt>
      <trkpt lat="43.63409" lon="5.43328">
        <ele>408.22</ele>
        <time>2016-10-27T13:38:34Z</time>
      </trkpt>
      <trkpt lat="43.63405" lon="5.43329">
        <ele>408.7</ele>
        <time>2016-10-27T13:39:07Z</time>
      </trkpt>
      <trkpt lat="43.63405" lon="5.4333">
        <ele>408.7</ele>
        <time>2016-10-27T13:39:42Z</time>
      </trkpt>
      <trkpt lat="43.63408" lon="5.4333">
        <ele>408.7</ele>
        <time>2016-10-27T13:40:18Z</time>
      </trkpt>
      <trkpt lat="43.63404" lon="5.43336">
        <ele>408.22</ele>
        <time>2016-10-27T13:40:53Z</time>
      </trkpt>
      <trkpt lat="43.63408" lon="5.43333">
        <ele>408.22</ele>
        <time>2016-10-27T13:41:29Z</time>
      </trkpt>
      <trkpt lat="43.63409" lon="5.43331">
        <ele>408.7</ele>
        <time>2016-10-27T13:42:01Z</time>
      </trkpt>
      <trkpt lat="43.6341" lon="5.43331">
        <ele>408.7</ele>
        <time>2016-10-27T13:42:28Z</time>
      </trkpt>
      <trkpt lat="43.6341" lon="5.43332">
        <ele>408.7</ele>
        <time>2016-10-27T13:43:03Z</time>
      </trkpt>
      <trkpt lat="43.63408" lon="5.43331">
        <ele>408.7</ele>
        <time>2016-10-27T13:43:35Z</time>
      </trkpt>
      <trkpt lat="43.63412" lon="5.43331">
        <ele>408.7</ele>
        <time>2016-10-27T13:44:09Z</time>
      </trkpt>
      <trkpt lat="43.63408" lon="5.43336">
        <ele>408.7</ele>
        <time>2016-10-27T13:44:39Z</time>
      </trkpt>
      <trkpt lat="43.63407" lon="5.43337">
        <ele>408.7</ele>
        <time>2016-10-27T13:45:13Z</time>
      </trkpt>
      <trkpt lat="43.63408" lon="5.43337">
        <ele>408.7</ele>
        <time>2016-10-27T13:45:43Z</time>
      </trkpt>
      <trkpt lat="43.63407" lon="5.43336">
        <ele>409.18</ele>
        <time>2016-10-27T13:46:12Z</time>
      </trkpt>
      <trkpt lat="43.63408" lon="5.43336">
        <ele>408.7</ele>
        <time>2016-10-27T13:46:44Z</time>
      </trkpt>
      <trkpt lat="43.63407" lon="5.4334">
        <ele>408.7</ele>
        <time>2016-10-27T13:47:15Z</time>
      </trkpt>
      <trkpt lat="43.63407" lon="5.43342">
        <ele>408.7</ele>
        <time>2016-10-27T13:47:46Z</time>
      </trkpt>
      <trkpt lat="43.63408" lon="5.4333">
        <ele>408.22</ele>
        <time>2016-10-27T13:48:24Z</time>
      </trkpt>
      <trkpt lat="43.63406" lon="5.43336">
        <ele>408.22</ele>
        <time>2016-10-27T13:48:55Z</time>
      </trkpt>
      <trkpt lat="43.6341" lon="5.43334">
        <ele>408.22</ele>
        <time>2016-10-27T13:49:25Z</time>
      </trkpt>
      <trkpt lat="43.63406" lon="5.43329">
        <ele>407.74</ele>
        <time>2016-10-27T13:49:56Z</time>
      </trkpt>
      <trkpt lat="43.63404" lon="5.4334">
        <ele>407.74</ele>
        <time>2016-10-27T13:50:35Z</time>
      </trkpt>
      <trkpt lat="43.63406" lon="5.43333">
        <ele>407.74</ele>
        <time>2016-10-27T13:51:15Z</time>
      </trkpt>
      <trkpt lat="43.63409" lon="5.43342">
        <ele>407.74</ele>
        <time>2016-10-27T13:51:45Z</time>
      </trkpt>
      <trkpt lat="43.63414" lon="5.43339">
        <ele>407.74</ele>
        <time>2016-10-27T13:52:14Z</time>
      </trkpt>
      <trkpt lat="43.63409" lon="5.43337">
        <ele>407.26</ele>
        <time>2016-10-27T13:52:37Z</time>
      </trkpt>
      <trkpt lat="43.63411" lon="5.43338">
        <ele>407.26</ele>
        <time>2016-10-27T13:53:02Z</time>
      </trkpt>
      <trkpt lat="43.63412" lon="5.43341">
        <ele>407.26</ele>
        <time>2016-10-27T13:53:34Z</time>
      </trkpt>
      <trkpt lat="43.6341" lon="5.4334">
        <ele>407.26</ele>
        <time>2016-10-27T13:54:07Z</time>
      </trkpt>
      <trkpt lat="43.63411" lon="5.43338">
        <ele>407.26</ele>
        <time>2016-10-27T13:54:34Z</time>
      </trkpt>
      <trkpt lat="43.6341" lon="5.4334">
        <ele>407.26</ele>
        <time>2016-10-27T13:55:02Z</time>
      </trkpt>
      <trkpt lat="43.63416" lon="5.43339">
        <ele>407.26</ele>
        <time>2016-10-27T13:55:33Z</time>
      </trkpt>
      <trkpt lat="43.6341" lon="5.43339">
        <ele>407.74</ele>
        <time>2016-10-27T13:56:03Z</time>
      </trkpt>
      <trkpt lat="43.63409" lon="5.43345">
        <ele>407.74</ele>
        <time>2016-10-27T13:56:30Z</time>
      </trkpt>
      <trkpt lat="43.63409" lon="5.43339">
        <ele>407.74</ele>
        <time>2016-10-27T13:56:47Z</time>
      </trkpt>
      <trkpt lat="43.63409" lon="5.43346">
        <ele>407.26</ele>
        <time>2016-10-27T13:57:05Z</time>
      </trkpt>
      <trkpt lat="43.63406" lon="5.43349">
        <ele>407.74</ele>
        <time>2016-10-27T13:57:40Z</time>
      </trkpt>
      <trkpt lat="43.63406" lon="5.43346">
        <ele>407.74</ele>
        <time>2016-10-27T13:57:58Z</time>
      </trkpt>
      <trkpt lat="43.63411" lon="5.43351">
        <ele>406.29</ele>
        <time>2016-10-27T13:58:13Z</time>
      </trkpt>
      <trkpt lat="43.63418" lon="5.43347">
        <ele>405.81</ele>
        <time>2016-10-27T13:58:27Z</time>
      </trkpt>
      <trkpt lat="43.6342" lon="5.4335">
        <ele>405.81</ele>
        <time>2016-10-27T13:58:42Z</time>
      </trkpt>
      <trkpt lat="43.63427" lon="5.43344">
        <ele>405.81</ele>
        <time>2016-10-27T13:58:56Z</time>
      </trkpt>
      <trkpt lat="43.63429" lon="5.43345">
        <ele>405.81</ele>
        <time>2016-10-27T13:59:12Z</time>
      </trkpt>
      <trkpt lat="43.63435" lon="5.43339">
        <ele>405.33</ele>
        <time>2016-10-27T13:59:27Z</time>
      </trkpt>
      <trkpt lat="43.63442" lon="5.43336">
        <ele>405.33</ele>
        <time>2016-10-27T13:59:47Z</time>
      </trkpt>
      <trkpt lat="43.63447" lon="5.4333">
        <ele>404.85</ele>
        <time>2016-10-27T14:00:03Z</time>
      </trkpt>
      <trkpt lat="43.63457" lon="5.43326">
        <ele>403.89</ele>
        <time>2016-10-27T14:00:20Z</time>
      </trkpt>
      <trkpt lat="43.63463" lon="5.43319">
        <ele>403.41</ele>
        <time>2016-10-27T14:00:35Z</time>
      </trkpt>
      <trkpt lat="43.6347" lon="5.43315">
        <ele>402.93</ele>
        <time>2016-10-27T14:00:50Z</time>
      </trkpt>
      <trkpt lat="43.6348" lon="5.4331">
        <ele>402.45</ele>
        <time>2016-10-27T14:01:06Z</time>
      </trkpt>
      <trkpt lat="43.63485" lon="5.43306">
        <ele>401.49</ele>
        <time>2016-10-27T14:01:20Z</time>
      </trkpt>
      <trkpt lat="43.63494" lon="5.43301">
        <ele>401.49</ele>
        <time>2016-10-27T14:01:36Z</time>
      </trkpt>
      <trkpt lat="43.63501" lon="5.43296">
        <ele>401.01</ele>
        <time>2016-10-27T14:01:52Z</time>
      </trkpt>
      <trkpt lat="43.63506" lon="5.43296">
        <ele>401.01</ele>
        <time>2016-10-27T14:02:06Z</time>
      </trkpt>
      <trkpt lat="43.635" lon="5.43299">
        <ele>400.53</ele>
        <time>2016-10-27T14:02:29Z</time>
      </trkpt>
      <trkpt lat="43.63495" lon="5.433">
        <ele>401.01</ele>
        <time>2016-10-27T14:02:47Z</time>
      </trkpt>
      <trkpt lat="43.63495" lon="5.433">
        <ele>400.53</ele>
        <time>2016-10-27T14:02:50Z</time>
      </trkpt>
      <trkpt lat="43.63498" lon="5.43298">
        <ele>400.53</ele>
        <time>2016-10-27T14:02:57Z</time>
      </trkpt>
      <trkpt lat="43.635" lon="5.43301">
        <ele>400.53</ele>
        <time>2016-10-27T14:03:11Z</time>
      </trkpt>
      <trkpt lat="43.63508" lon="5.43293">
        <ele>400.53</ele>
        <time>2016-10-27T14:03:25Z</time>
      </trkpt>
      <trkpt lat="43.63517" lon="5.43285">
        <ele>400.05</ele>
        <time>2016-10-27T14:03:43Z</time>
      </trkpt>
      <trkpt lat="43.63525" lon="5.43274">
        <ele>400.05</ele>
        <time>2016-10-27T14:03:59Z</time>
      </trkpt>
      <trkpt lat="43.63528" lon="5.43272">
        <ele>399.57</ele>
        <time>2016-10-27T14:04:13Z</time>
      </trkpt>
      <trkpt lat="43.63532" lon="5.43266">
        <ele>399.57</ele>
        <time>2016-10-27T14:04:26Z</time>
      </trkpt>
      <trkpt lat="43.63538" lon="5.43259">
        <ele>398.6</ele>
        <time>2016-10-27T14:04:41Z</time>
      </trkpt>
      <trkpt lat="43.63542" lon="5.43256">
        <ele>398.12</ele>
        <time>2016-10-27T14:04:56Z</time>
      </trkpt>
      <trkpt lat="43.63549" lon="5.4325">
        <ele>398.12</ele>
        <time>2016-10-27T14:05:10Z</time>
      </trkpt>
      <trkpt lat="43.63554" lon="5.43243">
        <ele>397.64</ele>
        <time>2016-10-27T14:05:24Z</time>
      </trkpt>
      <trkpt lat="43.63562" lon="5.43234">
        <ele>397.16</ele>
        <time>2016-10-27T14:05:39Z</time>
      </trkpt>
      <trkpt lat="43.63562" lon="5.43233">
        <ele>397.64</ele>
        <time>2016-10-27T14:05:54Z</time>
      </trkpt>
      <trkpt lat="43.63571" lon="5.43225">
        <ele>397.16</ele>
        <time>2016-10-27T14:06:12Z</time>
      </trkpt>
      <trkpt lat="43.63578" lon="5.43219">
        <ele>397.16</ele>
        <time>2016-10-27T14:06:26Z</time>
      </trkpt>
      <trkpt lat="43.63583" lon="5.43213">
        <ele>397.64</ele>
        <time>2016-10-27T14:06:38Z</time>
      </trkpt>
      <trkpt lat="43.63587" lon="5.43211">
        <ele>398.12</ele>
        <time>2016-10-27T14:06:50Z</time>
      </trkpt>
      <trkpt lat="43.63595" lon="5.43206">
        <ele>397.64</ele>
        <time>2016-10-27T14:07:14Z</time>
      </trkpt>
      <trkpt lat="43.63601" lon="5.43201">
        <ele>398.12</ele>
        <time>2016-10-27T14:07:26Z</time>
      </trkpt>
      <trkpt lat="43.63612" lon="5.43195">
        <ele>397.16</ele>
        <time>2016-10-27T14:07:41Z</time>
      </trkpt>
      <trkpt lat="43.63618" lon="5.43195">
        <ele>396.2</ele>
        <time>2016-10-27T14:07:55Z</time>
      </trkpt>
      <trkpt lat="43.63624" lon="5.43193">
        <ele>396.2</ele>
        <time>2016-10-27T14:08:07Z</time>
      </trkpt>
      <trkpt lat="43.63628" lon="5.43186">
        <ele>395.72</ele>
        <time>2016-10-27T14:08:22Z</time>
      </trkpt>
      <trkpt lat="43.63629" lon="5.4319">
        <ele>395.24</ele>
        <time>2016-10-27T14:08:41Z</time>
      </trkpt>
      <trkpt lat="43.63638" lon="5.43187">
        <ele>394.76</ele>
        <time>2016-10-27T14:08:56Z</time>
      </trkpt>
      <trkpt lat="43.63646" lon="5.43185">
        <ele>394.76</ele>
        <time>2016-10-27T14:09:11Z</time>
      </trkpt>
      <trkpt lat="43.63654" lon="5.43184">
        <ele>394.28</ele>
        <time>2016-10-27T14:09:26Z</time>
      </trkpt>
      <trkpt lat="43.63663" lon="5.4318">
        <ele>394.28</ele>
        <time>2016-10-27T14:09:40Z</time>
      </trkpt>
      <trkpt lat="43.6367" lon="5.43178">
        <ele>393.8</ele>
        <time>2016-10-27T14:09:54Z</time>
      </trkpt>
      <trkpt lat="43.63678" lon="5.43173">
        <ele>393.8</ele>
        <time>2016-10-27T14:10:08Z</time>
      </trkpt>
      <trkpt lat="43.63687" lon="5.43168">
        <ele>393.8</ele>
        <time>2016-10-27T14:10:24Z</time>
      </trkpt>
      <trkpt lat="43.63696" lon="5.43169">
        <ele>393.32</ele>
        <time>2016-10-27T14:10:38Z</time>
      </trkpt>
      <trkpt lat="43.63702" lon="5.4317">
        <ele>393.32</ele>
        <time>2016-10-27T14:10:51Z</time>
      </trkpt>
      <trkpt lat="43.63708" lon="5.43172">
        <ele>393.8</ele>
        <time>2016-10-27T14:11:04Z</time>
      </trkpt>
      <trkpt lat="43.63708" lon="5.43169">
        <ele>393.32</ele>
        <time>2016-10-27T14:11:17Z</time>
      </trkpt>
      <trkpt lat="43.63712" lon="5.43175">
        <ele>393.32</ele>
        <time>2016-10-27T14:11:30Z</time>
      </trkpt>
      <trkpt lat="43.63718" lon="5.43175">
        <ele>393.32</ele>
        <time>2016-10-27T14:11:43Z</time>
      </trkpt>
      <trkpt lat="43.63724" lon="5.43176">
        <ele>393.32</ele>
        <time>2016-10-27T14:12:03Z</time>
      </trkpt>
      <trkpt lat="43.63729" lon="5.43175">
        <ele>392.84</ele>
        <time>2016-10-27T14:12:19Z</time>
      </trkpt>
      <trkpt lat="43.63736" lon="5.43179">
        <ele>392.84</ele>
        <time>2016-10-27T14:12:33Z</time>
      </trkpt>
      <trkpt lat="43.63743" lon="5.43179">
        <ele>391.87</ele>
        <time>2016-10-27T14:12:49Z</time>
      </trkpt>
      <trkpt lat="43.63746" lon="5.4318">
        <ele>391.39</ele>
        <time>2016-10-27T14:13:05Z</time>
      </trkpt>
      <trkpt lat="43.63751" lon="5.4318">
        <ele>390.43</ele>
        <time>2016-10-27T14:13:18Z</time>
      </trkpt>
      <trkpt lat="43.63759" lon="5.43174">
        <ele>389.47</ele>
        <time>2016-10-27T14:13:33Z</time>
      </trkpt>
      <trkpt lat="43.63763" lon="5.43173">
        <ele>389.95</ele>
        <time>2016-10-27T14:13:51Z</time>
      </trkpt>
      <trkpt lat="43.63766" lon="5.43178">
        <ele>389.95</ele>
        <time>2016-10-27T14:14:05Z</time>
      </trkpt>
      <trkpt lat="43.63772" lon="5.43175">
        <ele>389.95</ele>
        <time>2016-10-27T14:14:18Z</time>
      </trkpt>
      <trkpt lat="43.63779" lon="5.43177">
        <ele>388.51</ele>
        <time>2016-10-27T14:14:35Z</time>
      </trkpt>
      <trkpt lat="43.63785" lon="5.43177">
        <ele>388.51</ele>
        <time>2016-10-27T14:14:48Z</time>
      </trkpt>
      <trkpt lat="43.63788" lon="5.43176">
        <ele>388.03</ele>
        <time>2016-10-27T14:14:59Z</time>
      </trkpt>
      <trkpt lat="43.63795" lon="5.43178">
        <ele>387.55</ele>
        <time>2016-10-27T14:15:13Z</time>
      </trkpt>
      <trkpt lat="43.63801" lon="5.43176">
        <ele>387.55</ele>
        <time>2016-10-27T14:15:28Z</time>
      </trkpt>
      <trkpt lat="43.63806" lon="5.43178">
        <ele>386.59</ele>
        <time>2016-10-27T14:15:40Z</time>
      </trkpt>
      <trkpt lat="43.63813" lon="5.43181">
        <ele>385.15</ele>
        <time>2016-10-27T14:15:58Z</time>
      </trkpt>
      <trkpt lat="43.6382" lon="5.43182">
        <ele>385.63</ele>
        <time>2016-10-27T14:16:17Z</time>
      </trkpt>
      <trkpt lat="43.63826" lon="5.43183">
        <ele>386.11</ele>
        <time>2016-10-27T14:16:31Z</time>
      </trkpt>
      <trkpt lat="43.63832" lon="5.43185">
        <ele>386.11</ele>
        <time>2016-10-27T14:16:45Z</time>
      </trkpt>
      <trkpt lat="43.63837" lon="5.43188">
        <ele>385.15</ele>
        <time>2016-10-27T14:17:02Z</time>
      </trkpt>
      <trkpt lat="43.63844" lon="5.43186">
        <ele>384.66</ele>
        <time>2016-10-27T14:17:16Z</time>
      </trkpt>
      <trkpt lat="43.63848" lon="5.43185">
        <ele>385.15</ele>
        <time>2016-10-27T14:17:40Z</time>
      </trkpt>
      <trkpt lat="43.63851" lon="5.43185">
        <ele>385.15</ele>
        <time>2016-10-27T14:17:51Z</time>
      </trkpt>
      <trkpt lat="43.63848" lon="5.43189">
        <ele>385.15</ele>
        <time>2016-10-27T14:18:09Z</time>
      </trkpt>
      <trkpt lat="43.63857" lon="5.43186">
        <ele>385.15</ele>
        <time>2016-10-27T14:18:23Z</time>
      </trkpt>
      <trkpt lat="43.63866" lon="5.43185">
        <ele>385.15</ele>
        <time>2016-10-27T14:18:37Z</time>
      </trkpt>
      <trkpt lat="43.63874" lon="5.43185">
        <ele>384.18</ele>
        <time>2016-10-27T14:18:52Z</time>
      </trkpt>
      <trkpt lat="43.63882" lon="5.43183">
        <ele>383.7</ele>
        <time>2016-10-27T14:19:06Z</time>
      </trkpt>
      <trkpt lat="43.63883" lon="5.43178">
        <ele>383.7</ele>
        <time>2016-10-27T14:19:19Z</time>
      </trkpt>
      <trkpt lat="43.63887" lon="5.43181">
        <ele>383.7</ele>
        <time>2016-10-27T14:19:38Z</time>
      </trkpt>
      <trkpt lat="43.63888" lon="5.43185">
        <ele>383.22</ele>
        <time>2016-10-27T14:19:51Z</time>
      </trkpt>
      <trkpt lat="43.63886" lon="5.43199">
        <ele>380.82</ele>
        <time>2016-10-27T14:20:07Z</time>
      </trkpt>
      <trkpt lat="43.63888" lon="5.43198">
        <ele>380.34</ele>
        <time>2016-10-27T14:20:21Z</time>
      </trkpt>
      <trkpt lat="43.63896" lon="5.4321">
        <ele>379.38</ele>
        <time>2016-10-27T14:20:40Z</time>
      </trkpt>
      <trkpt lat="43.63906" lon="5.43213">
        <ele>379.38</ele>
        <time>2016-10-27T14:20:54Z</time>
      </trkpt>
      <trkpt lat="43.63916" lon="5.43214">
        <ele>378.9</ele>
        <time>2016-10-27T14:21:09Z</time>
      </trkpt>
      <trkpt lat="43.6392" lon="5.43215">
        <ele>378.9</ele>
        <time>2016-10-27T14:21:24Z</time>
      </trkpt>
      <trkpt lat="43.6393" lon="5.43218">
        <ele>378.9</ele>
        <time>2016-10-27T14:21:40Z</time>
      </trkpt>
      <trkpt lat="43.6394" lon="5.43221">
        <ele>378.9</ele>
        <time>2016-10-27T14:21:54Z</time>
      </trkpt>
      <trkpt lat="43.6395" lon="5.43225">
        <ele>378.42</ele>
        <time>2016-10-27T14:22:10Z</time>
      </trkpt>
      <trkpt lat="43.63961" lon="5.43227">
        <ele>378.42</ele>
        <time>2016-10-27T14:22:26Z</time>
      </trkpt>
      <trkpt lat="43.63971" lon="5.43226">
        <ele>377.94</ele>
        <time>2016-10-27T14:22:44Z</time>
      </trkpt>
      <trkpt lat="43.63982" lon="5.43224">
        <ele>377.94</ele>
        <time>2016-10-27T14:22:59Z</time>
      </trkpt>
      <trkpt lat="43.63997" lon="5.43227">
        <ele>377.94</ele>
        <time>2016-10-27T14:23:16Z</time>
      </trkpt>
      <trkpt lat="43.64007" lon="5.43233">
        <ele>376.97</ele>
        <time>2016-10-27T14:23:30Z</time>
      </trkpt>
      <trkpt lat="43.64019" lon="5.43235">
        <ele>376.49</ele>
        <time>2016-10-27T14:23:45Z</time>
      </trkpt>
      <trkpt lat="43.64032" lon="5.43239">
        <ele>376.01</ele>
        <time>2016-10-27T14:24:01Z</time>
      </trkpt>
      <trkpt lat="43.64043" lon="5.43242">
        <ele>376.49</ele>
        <time>2016-10-27T14:24:17Z</time>
      </trkpt>
      <trkpt lat="43.64056" lon="5.43247">
        <ele>376.49</ele>
        <time>2016-10-27T14:24:33Z</time>
      </trkpt>
      <trkpt lat="43.6407" lon="5.43253">
        <ele>376.49</ele>
        <time>2016-10-27T14:24:51Z</time>
      </trkpt>
      <trkpt lat="43.64083" lon="5.43256">
        <ele>375.53</ele>
        <time>2016-10-27T14:25:04Z</time>
      </trkpt>
      <trkpt lat="43.64096" lon="5.4326">
        <ele>375.05</ele>
        <time>2016-10-27T14:25:21Z</time>
      </trkpt>
      <trkpt lat="43.64109" lon="5.43266">
        <ele>375.05</ele>
        <time>2016-10-27T14:25:39Z</time>
      </trkpt>
      <trkpt lat="43.6412" lon="5.43273">
        <ele>375.05</ele>
        <time>2016-10-27T14:25:55Z</time>
      </trkpt>
      <trkpt lat="43.64129" lon="5.4328">
        <ele>373.61</ele>
        <time>2016-10-27T14:26:11Z</time>
      </trkpt>
      <trkpt lat="43.64138" lon="5.43281">
        <ele>373.13</ele>
        <time>2016-10-27T14:26:25Z</time>
      </trkpt>
      <trkpt lat="43.64145" lon="5.43282">
        <ele>372.17</ele>
        <time>2016-10-27T14:26:41Z</time>
      </trkpt>
      <trkpt lat="43.64158" lon="5.43282">
        <ele>372.17</ele>
        <time>2016-10-27T14:26:56Z</time>
      </trkpt>
      <trkpt lat="43.64168" lon="5.43288">
        <ele>371.69</ele>
        <time>2016-10-27T14:27:12Z</time>
      </trkpt>
      <trkpt lat="43.64177" lon="5.43287">
        <ele>372.17</ele>
        <time>2016-10-27T14:27:28Z</time>
      </trkpt>
      <trkpt lat="43.64189" lon="5.43285">
        <ele>372.17</ele>
        <time>2016-10-27T14:27:42Z</time>
      </trkpt>
      <trkpt lat="43.64201" lon="5.43284">
        <ele>372.65</ele>
        <time>2016-10-27T14:27:58Z</time>
      </trkpt>
      <trkpt lat="43.64209" lon="5.43288">
        <ele>372.65</ele>
        <time>2016-10-27T14:28:09Z</time>
      </trkpt>
      <trkpt lat="43.64217" lon="5.43291">
        <ele>374.09</ele>
        <time>2016-10-27T14:28:22Z</time>
      </trkpt>
      <trkpt lat="43.6422" lon="5.43298">
        <ele>374.09</ele>
        <time>2016-10-27T14:28:36Z</time>
      </trkpt>
      <trkpt lat="43.6423" lon="5.43303">
        <ele>373.61</ele>
        <time>2016-10-27T14:28:51Z</time>
      </trkpt>
      <trkpt lat="43.64233" lon="5.43311">
        <ele>374.09</ele>
        <time>2016-10-27T14:29:06Z</time>
      </trkpt>
      <trkpt lat="43.64239" lon="5.43319">
        <ele>374.57</ele>
        <time>2016-10-27T14:29:18Z</time>
      </trkpt>
      <trkpt lat="43.64244" lon="5.43324">
        <ele>375.05</ele>
        <time>2016-10-27T14:29:31Z</time>
      </trkpt>
      <trkpt lat="43.64248" lon="5.43329">
        <ele>376.01</ele>
        <time>2016-10-27T14:29:43Z</time>
      </trkpt>
      <trkpt lat="43.64256" lon="5.43333">
        <ele>376.97</ele>
        <time>2016-10-27T14:29:59Z</time>
      </trkpt>
      <trkpt lat="43.64263" lon="5.43335">
        <ele>378.9</ele>
        <time>2016-10-27T14:30:11Z</time>
      </trkpt>
      <trkpt lat="43.64269" lon="5.43336">
        <ele>380.34</ele>
        <time>2016-10-27T14:30:24Z</time>
      </trkpt>
      <trkpt lat="43.64277" lon="5.43333">
        <ele>380.34</ele>
        <time>2016-10-27T14:30:36Z</time>
      </trkpt>
      <trkpt lat="43.64283" lon="5.43332">
        <ele>380.34</ele>
        <time>2016-10-27T14:30:53Z</time>
      </trkpt>
      <trkpt lat="43.64295" lon="5.43336">
        <ele>379.86</ele>
        <time>2016-10-27T14:31:09Z</time>
      </trkpt>
      <trkpt lat="43.64306" lon="5.43333">
        <ele>379.86</ele>
        <time>2016-10-27T14:31:24Z</time>
      </trkpt>
      <trkpt lat="43.64317" lon="5.43334">
        <ele>379.38</ele>
        <time>2016-10-27T14:31:38Z</time>
      </trkpt>
      <trkpt lat="43.64325" lon="5.43334">
        <ele>379.86</ele>
        <time>2016-10-27T14:31:51Z</time>
      </trkpt>
      <trkpt lat="43.64327" lon="5.43334">
        <ele>379.86</ele>
        <time>2016-10-27T14:31:53Z</time>
      </trkpt>
      <trkpt lat="43.64335" lon="5.43334">
        <ele>380.34</ele>
        <time>2016-10-27T14:32:04Z</time>
      </trkpt>
      <trkpt lat="43.64341" lon="5.43329">
        <ele>379.86</ele>
        <time>2016-10-27T14:32:17Z</time>
      </trkpt>
      <trkpt lat="43.64347" lon="5.43326">
        <ele>379.86</ele>
        <time>2016-10-27T14:32:34Z</time>
      </trkpt>
      <trkpt lat="43.64354" lon="5.43329">
        <ele>379.86</ele>
        <time>2016-10-27T14:32:44Z</time>
      </trkpt>
      <trkpt lat="43.64364" lon="5.4333">
        <ele>380.34</ele>
        <time>2016-10-27T14:32:56Z</time>
      </trkpt>
      <trkpt lat="43.64361" lon="5.43332">
        <ele>380.34</ele>
        <time>2016-10-27T14:33:09Z</time>
      </trkpt>
      <trkpt lat="43.64359" lon="5.43332">
        <ele>379.38</ele>
        <time>2016-10-27T14:33:26Z</time>
      </trkpt>
      <trkpt lat="43.64358" lon="5.43334">
        <ele>380.34</ele>
        <time>2016-10-27T14:33:48Z</time>
      </trkpt>
      <trkpt lat="43.6436" lon="5.43332">
        <ele>378.9</ele>
        <time>2016-10-27T14:49:33Z</time>
      </trkpt>
      <trkpt lat="43.64354" lon="5.43335">
        <ele>378.9</ele>
        <time>2016-10-27T14:49:34Z</time>
      </trkpt>
      <trkpt lat="43.6436" lon="5.43334">
        <ele>379.38</ele>
        <time>2016-10-27T14:50:02Z</time>
      </trkpt>
      <trkpt lat="43.64362" lon="5.43336">
        <ele>379.86</ele>
        <time>2016-10-27T14:50:30Z</time>
      </trkpt>
      <trkpt lat="43.64361" lon="5.43337">
        <ele>379.38</ele>
        <time>2016-10-27T14:51:01Z</time>
      </trkpt>
      <trkpt lat="43.64361" lon="5.43338">
        <ele>377.94</ele>
        <time>2016-10-27T14:51:08Z</time>
      </trkpt>
      <trkpt lat="43.64359" lon="5.4334">
        <ele>377.94</ele>
        <time>2016-10-27T14:51:23Z</time>
      </trkpt>
      <trkpt lat="43.64359" lon="5.4334">
        <ele>379.86</ele>
        <time>2016-10-27T14:51:38Z</time>
      </trkpt>
      <trkpt lat="43.64357" lon="5.4334">
        <ele>379.38</ele>
        <time>2016-10-27T14:52:00Z</time>
      </trkpt>
      <trkpt lat="43.64358" lon="5.43334">
        <ele>380.34</ele>
        <time>2016-10-27T14:52:33Z</time>
      </trkpt>
      <trkpt lat="43.64356" lon="5.43336">
        <ele>379.86</ele>
        <time>2016-10-27T14:53:06Z</time>
      </trkpt>
      <trkpt lat="43.64356" lon="5.43338">
        <ele>380.34</ele>
        <time>2016-10-27T14:53:44Z</time>
      </trkpt>
      <trkpt lat="43.64361" lon="5.43337">
        <ele>380.82</ele>
        <time>2016-10-27T14:54:10Z</time>
      </trkpt>
      <trkpt lat="43.64363" lon="5.4334">
        <ele>380.34</ele>
        <time>2016-10-27T14:54:24Z</time>
      </trkpt>
      <trkpt lat="43.64363" lon="5.43347">
        <ele>380.34</ele>
        <time>2016-10-27T14:54:35Z</time>
      </trkpt>
      <trkpt lat="43.64364" lon="5.43354">
        <ele>380.34</ele>
        <time>2016-10-27T14:54:48Z</time>
      </trkpt>
      <trkpt lat="43.64365" lon="5.43358">
        <ele>380.34</ele>
        <time>2016-10-27T14:55:00Z</time>
      </trkpt>
      <trkpt lat="43.64366" lon="5.43368">
        <ele>380.82</ele>
        <time>2016-10-27T14:55:12Z</time>
      </trkpt>
      <trkpt lat="43.64366" lon="5.43375">
        <ele>380.34</ele>
        <time>2016-10-27T14:55:25Z</time>
      </trkpt>
      <trkpt lat="43.64367" lon="5.43375">
        <ele>380.34</ele>
        <time>2016-10-27T14:55:45Z</time>
      </trkpt>
      <trkpt lat="43.64367" lon="5.43377">
        <ele>380.34</ele>
        <time>2016-10-27T14:56:16Z</time>
      </trkpt>
      <trkpt lat="43.64368" lon="5.4338">
        <ele>380.34</ele>
        <time>2016-10-27T14:56:38Z</time>
      </trkpt>
      <trkpt lat="43.64369" lon="5.43377">
        <ele>379.86</ele>
        <time>2016-10-27T14:56:54Z</time>
      </trkpt>
      <trkpt lat="43.64368" lon="5.43373">
        <ele>380.34</ele>
        <time>2016-10-27T14:57:16Z</time>
      </trkpt>
      <trkpt lat="43.64369" lon="5.43376">
        <ele>379.86</ele>
        <time>2016-10-27T14:57:31Z</time>
      </trkpt>
      <trkpt lat="43.64368" lon="5.43378">
        <ele>379.86</ele>
        <time>2016-10-27T14:57:50Z</time>
      </trkpt>
      <trkpt lat="43.64369" lon="5.43377">
        <ele>379.38</ele>
        <time>2016-10-27T14:58:14Z</time>
      </trkpt>
      <trkpt lat="43.6437" lon="5.43379">
        <ele>378.9</ele>
        <time>2016-10-27T14:58:33Z</time>
      </trkpt>
      <trkpt lat="43.64368" lon="5.43379">
        <ele>379.38</ele>
        <time>2016-10-27T14:59:01Z</time>
      </trkpt>
      <trkpt lat="43.64366" lon="5.43381">
        <ele>379.38</ele>
        <time>2016-10-27T14:59:32Z</time>
      </trkpt>
      <trkpt lat="43.64365" lon="5.43381">
        <ele>379.38</ele>
        <time>2016-10-27T15:00:06Z</time>
      </trkpt>
      <trkpt lat="43.64367" lon="5.43382">
        <ele>379.38</ele>
        <time>2016-10-27T15:00:37Z</time>
      </trkpt>
      <trkpt lat="43.64365" lon="5.43384">
        <ele>379.38</ele>
        <time>2016-10-27T15:01:11Z</time>
      </trkpt>
      <trkpt lat="43.64367" lon="5.43382">
        <ele>379.86</ele>
        <time>2016-10-27T15:01:40Z</time>
      </trkpt>
      <trkpt lat="43.64365" lon="5.43385">
        <ele>379.38</ele>
        <time>2016-10-27T15:02:16Z</time>
      </trkpt>
      <trkpt lat="43.64367" lon="5.43385">
        <ele>379.38</ele>
        <time>2016-10-27T15:02:43Z</time>
      </trkpt>
      <trkpt lat="43.64366" lon="5.43385">
        <ele>379.38</ele>
        <time>2016-10-27T15:03:04Z</time>
      </trkpt>
      <trkpt lat="43.64368" lon="5.43384">
        <ele>379.38</ele>
        <time>2016-10-27T15:03:20Z</time>
      </trkpt>
      <trkpt lat="43.64365" lon="5.43379">
        <ele>379.86</ele>
        <time>2016-10-27T15:03:38Z</time>
      </trkpt>
      <trkpt lat="43.64365" lon="5.43372">
        <ele>379.86</ele>
        <time>2016-10-27T15:03:42Z</time>
      </trkpt>
      <trkpt lat="43.64367" lon="5.43368">
        <ele>380.34</ele>
        <time>2016-10-27T15:03:46Z</time>
      </trkpt>
      <trkpt lat="43.6436" lon="5.43379">
        <ele>379.86</ele>
        <time>2016-10-27T15:03:51Z</time>
      </trkpt>
      <trkpt lat="43.64368" lon="5.43373">
        <ele>379.86</ele>
        <time>2016-10-27T15:04:03Z</time>
      </trkpt>
      <trkpt lat="43.64365" lon="5.43374">
        <ele>379.86</ele>
        <time>2016-10-27T15:04:20Z</time>
      </trkpt>
      <trkpt lat="43.64368" lon="5.43376">
        <ele>380.34</ele>
        <time>2016-10-27T15:04:38Z</time>
      </trkpt>
      <trkpt lat="43.64365" lon="5.43377">
        <ele>379.38</ele>
        <time>2016-10-27T15:04:54Z</time>
      </trkpt>
      <trkpt lat="43.64367" lon="5.43374">
        <ele>379.38</ele>
        <time>2016-10-27T15:05:20Z</time>
      </trkpt>
      <trkpt lat="43.64367" lon="5.43378">
        <ele>379.86</ele>
        <time>2016-10-27T15:05:53Z</time>
      </trkpt>
      <trkpt lat="43.64368" lon="5.43377">
        <ele>379.38</ele>
        <time>2016-10-27T15:06:27Z</time>
      </trkpt>
      <trkpt lat="43.64367" lon="5.43376">
        <ele>379.38</ele>
        <time>2016-10-27T15:07:06Z</time>
      </trkpt>
      <trkpt lat="43.64368" lon="5.43377">
        <ele>379.38</ele>
        <time>2016-10-27T15:07:39Z</time>
      </trkpt>
      <trkpt lat="43.64369" lon="5.43377">
        <ele>379.38</ele>
        <time>2016-10-27T15:08:13Z</time>
      </trkpt>
      <trkpt lat="43.64367" lon="5.43378">
        <ele>379.38</ele>
        <time>2016-10-27T15:08:45Z</time>
      </trkpt>
      <trkpt lat="43.64367" lon="5.43376">
        <ele>379.38</ele>
        <time>2016-10-27T15:09:24Z</time>
      </trkpt>
      <trkpt lat="43.64368" lon="5.43377">
        <ele>379.38</ele>
        <time>2016-10-27T15:10:00Z</time>
      </trkpt>
      <trkpt lat="43.64367" lon="5.4337">
        <ele>379.86</ele>
        <time>2016-10-27T15:10:13Z</time>
      </trkpt>
      <trkpt lat="43.64366" lon="5.43369">
        <ele>379.86</ele>
        <time>2016-10-27T15:10:14Z</time>
      </trkpt>
      <trkpt lat="43.64365" lon="5.43365">
        <ele>379.38</ele>
        <time>2016-10-27T15:10:27Z</time>
      </trkpt>
      <trkpt lat="43.64364" lon="5.43356">
        <ele>379.86</ele>
        <time>2016-10-27T15:10:40Z</time>
      </trkpt>
      <trkpt lat="43.64362" lon="5.43346">
        <ele>379.86</ele>
        <time>2016-10-27T15:10:52Z</time>
      </trkpt>
      <trkpt lat="43.6436" lon="5.43335">
        <ele>380.34</ele>
        <time>2016-10-27T15:11:03Z</time>
      </trkpt>
      <trkpt lat="43.64362" lon="5.43331">
        <ele>379.38</ele>
        <time>2016-10-27T15:11:13Z</time>
      </trkpt>
    </trkseg>
  </trk>
</gpx>